<?xml version="1.0" encoding="UTF-8" standalone="no" ?>
<gpx xmlns="http://www.topografix.com/GPX/1/1" xmlns:xsi="http://www.w3.org/2001/XMLSchema-instance" xsi:schemaLocation="http://www.topografix.com/GPX/1/1 http://www.topografix.com/GPX/1/1/gpx.xsd" version="1.1" creator="VisuGPX - https://www.visugpx.com">
  <metadata>
    <name>randonnée raquettes nocturne la Schlucht</name>
    <desc><![CDATA[Départ col de la Schlucht,le Collet, Retour col de la Schlucht.]]></desc>
  </metadata>
  <trk>
    <name><![CDATA[2016-03-01 23:28:40]]></name>
    <trkseg>
      <trkpt lat="48.06342" lon="7.02198">
        <ele>1163.77</ele>
        <time>2016-03-01T16:50:50Z</time>
      </trkpt>
      <trkpt lat="48.06342" lon="7.02198">
        <ele>1163.77</ele>
        <time>2016-03-01T16:50:51Z</time>
      </trkpt>
      <trkpt lat="48.0634" lon="7.02201">
        <ele>1166.8</ele>
        <time>2016-03-01T16:51:07Z</time>
      </trkpt>
      <trkpt lat="48.0634" lon="7.02201">
        <ele>1167.48</ele>
        <time>2016-03-01T16:51:09Z</time>
      </trkpt>
      <trkpt lat="48.0634" lon="7.02202">
        <ele>1164.17</ele>
        <time>2016-03-01T16:51:13Z</time>
      </trkpt>
      <trkpt lat="48.0634" lon="7.022">
        <ele>1164.12</ele>
        <time>2016-03-01T16:51:31Z</time>
      </trkpt>
      <trkpt lat="48.06339" lon="7.02203">
        <ele>1164.16</ele>
        <time>2016-03-01T16:51:54Z</time>
      </trkpt>
      <trkpt lat="48.06336" lon="7.02201">
        <ele>1164.6</ele>
        <time>2016-03-01T16:52:12Z</time>
      </trkpt>
      <trkpt lat="48.06337" lon="7.02201">
        <ele>1163.6</ele>
        <time>2016-03-01T16:52:29Z</time>
      </trkpt>
      <trkpt lat="48.06337" lon="7.02202">
        <ele>1161.6</ele>
        <time>2016-03-01T16:52:39Z</time>
      </trkpt>
      <trkpt lat="48.06337" lon="7.02202">
        <ele>1166.24</ele>
        <time>2016-03-01T16:52:41Z</time>
      </trkpt>
      <trkpt lat="48.06337" lon="7.02202">
        <ele>1166.1</ele>
        <time>2016-03-01T16:52:42Z</time>
      </trkpt>
      <trkpt lat="48.06337" lon="7.02202">
        <ele>1162.61</ele>
        <time>2016-03-01T16:52:43Z</time>
      </trkpt>
      <trkpt lat="48.06337" lon="7.02202">
        <ele>1162.67</ele>
        <time>2016-03-01T16:52:44Z</time>
      </trkpt>
      <trkpt lat="48.06337" lon="7.02202">
        <ele>1154.29</ele>
        <time>2016-03-01T16:53:05Z</time>
      </trkpt>
      <trkpt lat="48.06337" lon="7.02203">
        <ele>1163.52</ele>
        <time>2016-03-01T16:53:06Z</time>
      </trkpt>
      <trkpt lat="48.06337" lon="7.02202">
        <ele>1159.64</ele>
        <time>2016-03-01T16:53:14Z</time>
      </trkpt>
      <trkpt lat="48.06336" lon="7.02202">
        <ele>1162.41</ele>
        <time>2016-03-01T16:53:15Z</time>
      </trkpt>
      <trkpt lat="48.06336" lon="7.02202">
        <ele>1164.24</ele>
        <time>2016-03-01T16:53:24Z</time>
      </trkpt>
      <trkpt lat="48.06336" lon="7.02202">
        <ele>1162.02</ele>
        <time>2016-03-01T16:53:39Z</time>
      </trkpt>
      <trkpt lat="48.06336" lon="7.02202">
        <ele>1166.39</ele>
        <time>2016-03-01T16:53:40Z</time>
      </trkpt>
      <trkpt lat="48.06336" lon="7.02203">
        <ele>1164.16</ele>
        <time>2016-03-01T16:53:41Z</time>
      </trkpt>
      <trkpt lat="48.06335" lon="7.02202">
        <ele>1160.6</ele>
        <time>2016-03-01T16:53:54Z</time>
      </trkpt>
      <trkpt lat="48.06336" lon="7.02202">
        <ele>1166.27</ele>
        <time>2016-03-01T16:54:15Z</time>
      </trkpt>
      <trkpt lat="48.06336" lon="7.02202">
        <ele>1164.06</ele>
        <time>2016-03-01T16:54:16Z</time>
      </trkpt>
      <trkpt lat="48.06336" lon="7.02203">
        <ele>1158.46</ele>
        <time>2016-03-01T16:54:17Z</time>
      </trkpt>
      <trkpt lat="48.06336" lon="7.02202">
        <ele>1164.6</ele>
        <time>2016-03-01T16:54:18Z</time>
      </trkpt>
      <trkpt lat="48.06337" lon="7.02201">
        <ele>1159.99</ele>
        <time>2016-03-01T16:54:26Z</time>
      </trkpt>
      <trkpt lat="48.06337" lon="7.02201">
        <ele>1159.99</ele>
        <time>2016-03-01T16:54:27Z</time>
      </trkpt>
      <trkpt lat="48.06337" lon="7.02201">
        <ele>1164.39</ele>
        <time>2016-03-01T16:54:28Z</time>
      </trkpt>
      <trkpt lat="48.06337" lon="7.02201">
        <ele>1159.22</ele>
        <time>2016-03-01T16:54:29Z</time>
      </trkpt>
      <trkpt lat="48.06337" lon="7.02201">
        <ele>1165.34</ele>
        <time>2016-03-01T16:54:30Z</time>
      </trkpt>
      <trkpt lat="48.06337" lon="7.02201">
        <ele>1161.11</ele>
        <time>2016-03-01T16:54:33Z</time>
      </trkpt>
      <trkpt lat="48.06337" lon="7.02201">
        <ele>1155.26</ele>
        <time>2016-03-01T16:54:34Z</time>
      </trkpt>
      <trkpt lat="48.06337" lon="7.02201">
        <ele>1164.22</ele>
        <time>2016-03-01T16:54:35Z</time>
      </trkpt>
      <trkpt lat="48.06337" lon="7.02201">
        <ele>1163.18</ele>
        <time>2016-03-01T16:54:36Z</time>
      </trkpt>
      <trkpt lat="48.06337" lon="7.02201">
        <ele>1159.04</ele>
        <time>2016-03-01T16:54:41Z</time>
      </trkpt>
      <trkpt lat="48.06337" lon="7.02202">
        <ele>1165.05</ele>
        <time>2016-03-01T16:54:42Z</time>
      </trkpt>
      <trkpt lat="48.06337" lon="7.02202">
        <ele>1162.69</ele>
        <time>2016-03-01T16:54:45Z</time>
      </trkpt>
      <trkpt lat="48.06337" lon="7.02203">
        <ele>1162.86</ele>
        <time>2016-03-01T16:54:53Z</time>
      </trkpt>
      <trkpt lat="48.06337" lon="7.02203">
        <ele>1159.25</ele>
        <time>2016-03-01T16:55:14Z</time>
      </trkpt>
      <trkpt lat="48.06337" lon="7.02203">
        <ele>1165.18</ele>
        <time>2016-03-01T16:55:15Z</time>
      </trkpt>
      <trkpt lat="48.06336" lon="7.02203">
        <ele>1161.05</ele>
        <time>2016-03-01T16:55:19Z</time>
      </trkpt>
      <trkpt lat="48.06336" lon="7.02202">
        <ele>1161.84</ele>
        <time>2016-03-01T16:55:20Z</time>
      </trkpt>
      <trkpt lat="48.06336" lon="7.02202">
        <ele>1164.11</ele>
        <time>2016-03-01T16:55:45Z</time>
      </trkpt>
      <trkpt lat="48.06336" lon="7.02202">
        <ele>1163.49</ele>
        <time>2016-03-01T16:56:00Z</time>
      </trkpt>
      <trkpt lat="48.06337" lon="7.02203">
        <ele>1158.12</ele>
        <time>2016-03-01T16:56:11Z</time>
      </trkpt>
      <trkpt lat="48.06337" lon="7.02203">
        <ele>1161.65</ele>
        <time>2016-03-01T16:56:12Z</time>
      </trkpt>
      <trkpt lat="48.06336" lon="7.02203">
        <ele>1162.31</ele>
        <time>2016-03-01T16:56:27Z</time>
      </trkpt>
      <trkpt lat="48.06336" lon="7.02198">
        <ele>1163.02</ele>
        <time>2016-03-01T16:56:34Z</time>
      </trkpt>
      <trkpt lat="48.06334" lon="7.02196">
        <ele>1163.04</ele>
        <time>2016-03-01T16:56:37Z</time>
      </trkpt>
      <trkpt lat="48.0633" lon="7.02188">
        <ele>1162.49</ele>
        <time>2016-03-01T16:56:52Z</time>
      </trkpt>
      <trkpt lat="48.06331" lon="7.02189">
        <ele>1162.33</ele>
        <time>2016-03-01T16:57:10Z</time>
      </trkpt>
      <trkpt lat="48.06329" lon="7.02187">
        <ele>1161.2</ele>
        <time>2016-03-01T16:57:39Z</time>
      </trkpt>
      <trkpt lat="48.0633" lon="7.02187">
        <ele>1162.14</ele>
        <time>2016-03-01T16:57:44Z</time>
      </trkpt>
      <trkpt lat="48.06331" lon="7.02186">
        <ele>1162.54</ele>
        <time>2016-03-01T16:58:08Z</time>
      </trkpt>
      <trkpt lat="48.06333" lon="7.02185">
        <ele>1161.14</ele>
        <time>2016-03-01T16:58:29Z</time>
      </trkpt>
      <trkpt lat="48.06333" lon="7.02186">
        <ele>1161.41</ele>
        <time>2016-03-01T16:58:51Z</time>
      </trkpt>
      <trkpt lat="48.06334" lon="7.02191">
        <ele>1161.2</ele>
        <time>2016-03-01T16:59:06Z</time>
      </trkpt>
      <trkpt lat="48.06333" lon="7.02186">
        <ele>1161.37</ele>
        <time>2016-03-01T16:59:21Z</time>
      </trkpt>
      <trkpt lat="48.06333" lon="7.02185">
        <ele>1160.42</ele>
        <time>2016-03-01T16:59:38Z</time>
      </trkpt>
      <trkpt lat="48.06333" lon="7.02183">
        <ele>1160.51</ele>
        <time>2016-03-01T16:59:54Z</time>
      </trkpt>
      <trkpt lat="48.06324" lon="7.02168">
        <ele>1160.93</ele>
        <time>2016-03-01T17:00:41Z</time>
      </trkpt>
      <trkpt lat="48.0632" lon="7.02167">
        <ele>1160.95</ele>
        <time>2016-03-01T17:00:57Z</time>
      </trkpt>
      <trkpt lat="48.06315" lon="7.02164">
        <ele>1161</ele>
        <time>2016-03-01T17:01:09Z</time>
      </trkpt>
      <trkpt lat="48.06305" lon="7.02156">
        <ele>1161.81</ele>
        <time>2016-03-01T17:01:21Z</time>
      </trkpt>
      <trkpt lat="48.06293" lon="7.02151">
        <ele>1162.85</ele>
        <time>2016-03-01T17:01:36Z</time>
      </trkpt>
      <trkpt lat="48.0629" lon="7.02151">
        <ele>1162.79</ele>
        <time>2016-03-01T17:01:40Z</time>
      </trkpt>
      <trkpt lat="48.06278" lon="7.02156">
        <ele>1164.38</ele>
        <time>2016-03-01T17:01:53Z</time>
      </trkpt>
      <trkpt lat="48.06269" lon="7.02154">
        <ele>1164.32</ele>
        <time>2016-03-01T17:02:05Z</time>
      </trkpt>
      <trkpt lat="48.06252" lon="7.02143">
        <ele>1166.45</ele>
        <time>2016-03-01T17:02:24Z</time>
      </trkpt>
      <trkpt lat="48.06243" lon="7.02138">
        <ele>1165.13</ele>
        <time>2016-03-01T17:02:35Z</time>
      </trkpt>
      <trkpt lat="48.06228" lon="7.02132">
        <ele>1167.76</ele>
        <time>2016-03-01T17:02:54Z</time>
      </trkpt>
      <trkpt lat="48.06214" lon="7.02128">
        <ele>1169.73</ele>
        <time>2016-03-01T17:03:13Z</time>
      </trkpt>
      <trkpt lat="48.06199" lon="7.02124">
        <ele>1171.14</ele>
        <time>2016-03-01T17:03:32Z</time>
      </trkpt>
      <trkpt lat="48.06186" lon="7.02116">
        <ele>1172.07</ele>
        <time>2016-03-01T17:03:49Z</time>
      </trkpt>
      <trkpt lat="48.06178" lon="7.02105">
        <ele>1168.45</ele>
        <time>2016-03-01T17:04:02Z</time>
      </trkpt>
      <trkpt lat="48.06178" lon="7.02104">
        <ele>1174.27</ele>
        <time>2016-03-01T17:04:03Z</time>
      </trkpt>
      <trkpt lat="48.06175" lon="7.02096">
        <ele>1168.7</ele>
        <time>2016-03-01T17:04:11Z</time>
      </trkpt>
      <trkpt lat="48.06175" lon="7.02096">
        <ele>1174.16</ele>
        <time>2016-03-01T17:04:12Z</time>
      </trkpt>
      <trkpt lat="48.06174" lon="7.02095">
        <ele>1173.65</ele>
        <time>2016-03-01T17:04:13Z</time>
      </trkpt>
      <trkpt lat="48.0617" lon="7.02079">
        <ele>1173.31</ele>
        <time>2016-03-01T17:04:26Z</time>
      </trkpt>
      <trkpt lat="48.06167" lon="7.02059">
        <ele>1174.5</ele>
        <time>2016-03-01T17:04:41Z</time>
      </trkpt>
      <trkpt lat="48.06168" lon="7.02052">
        <ele>1174.89</ele>
        <time>2016-03-01T17:04:57Z</time>
      </trkpt>
      <trkpt lat="48.06163" lon="7.02047">
        <ele>1174.84</ele>
        <time>2016-03-01T17:05:13Z</time>
      </trkpt>
      <trkpt lat="48.06149" lon="7.02032">
        <ele>1177.82</ele>
        <time>2016-03-01T17:05:32Z</time>
      </trkpt>
      <trkpt lat="48.06138" lon="7.02021">
        <ele>1181.08</ele>
        <time>2016-03-01T17:05:47Z</time>
      </trkpt>
      <trkpt lat="48.06129" lon="7.02007">
        <ele>1182.94</ele>
        <time>2016-03-01T17:06:02Z</time>
      </trkpt>
      <trkpt lat="48.0612" lon="7.01983">
        <ele>1185.33</ele>
        <time>2016-03-01T17:06:24Z</time>
      </trkpt>
      <trkpt lat="48.06114" lon="7.01964">
        <ele>1188.8</ele>
        <time>2016-03-01T17:06:44Z</time>
      </trkpt>
      <trkpt lat="48.06108" lon="7.01947">
        <ele>1190.11</ele>
        <time>2016-03-01T17:07:04Z</time>
      </trkpt>
      <trkpt lat="48.06102" lon="7.01933">
        <ele>1192.21</ele>
        <time>2016-03-01T17:07:23Z</time>
      </trkpt>
      <trkpt lat="48.06102" lon="7.01932">
        <ele>1191.47</ele>
        <time>2016-03-01T17:07:28Z</time>
      </trkpt>
      <trkpt lat="48.06101" lon="7.01928">
        <ele>1193.09</ele>
        <time>2016-03-01T17:07:52Z</time>
      </trkpt>
      <trkpt lat="48.06101" lon="7.01927">
        <ele>1191.48</ele>
        <time>2016-03-01T17:08:16Z</time>
      </trkpt>
      <trkpt lat="48.06103" lon="7.01926">
        <ele>1190.83</ele>
        <time>2016-03-01T17:08:37Z</time>
      </trkpt>
      <trkpt lat="48.06103" lon="7.01927">
        <ele>1191.18</ele>
        <time>2016-03-01T17:09:05Z</time>
      </trkpt>
      <trkpt lat="48.06101" lon="7.01929">
        <ele>1187.3</ele>
        <time>2016-03-01T17:09:22Z</time>
      </trkpt>
      <trkpt lat="48.06101" lon="7.01929">
        <ele>1194.61</ele>
        <time>2016-03-01T17:09:23Z</time>
      </trkpt>
      <trkpt lat="48.061" lon="7.01929">
        <ele>1191.32</ele>
        <time>2016-03-01T17:09:26Z</time>
      </trkpt>
      <trkpt lat="48.061" lon="7.01926">
        <ele>1192.04</ele>
        <time>2016-03-01T17:09:48Z</time>
      </trkpt>
      <trkpt lat="48.06101" lon="7.01926">
        <ele>1191.73</ele>
        <time>2016-03-01T17:10:17Z</time>
      </trkpt>
      <trkpt lat="48.06099" lon="7.01917">
        <ele>1192.08</ele>
        <time>2016-03-01T17:10:38Z</time>
      </trkpt>
      <trkpt lat="48.06099" lon="7.01916">
        <ele>1192.01</ele>
        <time>2016-03-01T17:10:39Z</time>
      </trkpt>
      <trkpt lat="48.06092" lon="7.019">
        <ele>1193.6</ele>
        <time>2016-03-01T17:11:00Z</time>
      </trkpt>
      <trkpt lat="48.06087" lon="7.01889">
        <ele>1195.35</ele>
        <time>2016-03-01T17:11:15Z</time>
      </trkpt>
      <trkpt lat="48.0608" lon="7.01877">
        <ele>1197.31</ele>
        <time>2016-03-01T17:11:32Z</time>
      </trkpt>
      <trkpt lat="48.06074" lon="7.0186">
        <ele>1200.09</ele>
        <time>2016-03-01T17:11:52Z</time>
      </trkpt>
      <trkpt lat="48.06068" lon="7.01845">
        <ele>1202.47</ele>
        <time>2016-03-01T17:12:10Z</time>
      </trkpt>
      <trkpt lat="48.06068" lon="7.01838">
        <ele>1202.45</ele>
        <time>2016-03-01T17:12:18Z</time>
      </trkpt>
      <trkpt lat="48.06066" lon="7.01833">
        <ele>1201.86</ele>
        <time>2016-03-01T17:12:24Z</time>
      </trkpt>
      <trkpt lat="48.06061" lon="7.01817">
        <ele>1203.81</ele>
        <time>2016-03-01T17:12:43Z</time>
      </trkpt>
      <trkpt lat="48.06056" lon="7.018">
        <ele>1205.11</ele>
        <time>2016-03-01T17:13:03Z</time>
      </trkpt>
      <trkpt lat="48.06053" lon="7.01791">
        <ele>1210.05</ele>
        <time>2016-03-01T17:13:16Z</time>
      </trkpt>
      <trkpt lat="48.0605" lon="7.01783">
        <ele>1209.85</ele>
        <time>2016-03-01T17:13:27Z</time>
      </trkpt>
      <trkpt lat="48.06048" lon="7.01777">
        <ele>1211.22</ele>
        <time>2016-03-01T17:13:33Z</time>
      </trkpt>
      <trkpt lat="48.06045" lon="7.0176">
        <ele>1210.52</ele>
        <time>2016-03-01T17:13:50Z</time>
      </trkpt>
      <trkpt lat="48.06045" lon="7.01754">
        <ele>1211.7</ele>
        <time>2016-03-01T17:13:56Z</time>
      </trkpt>
      <trkpt lat="48.0604" lon="7.01737">
        <ele>1209.12</ele>
        <time>2016-03-01T17:14:16Z</time>
      </trkpt>
      <trkpt lat="48.06039" lon="7.01737">
        <ele>1209.87</ele>
        <time>2016-03-01T17:14:17Z</time>
      </trkpt>
      <trkpt lat="48.06038" lon="7.01736">
        <ele>1211.42</ele>
        <time>2016-03-01T17:14:20Z</time>
      </trkpt>
      <trkpt lat="48.06034" lon="7.01735">
        <ele>1212.46</ele>
        <time>2016-03-01T17:14:27Z</time>
      </trkpt>
      <trkpt lat="48.06032" lon="7.01734">
        <ele>1212.13</ele>
        <time>2016-03-01T17:14:47Z</time>
      </trkpt>
      <trkpt lat="48.06032" lon="7.01733">
        <ele>1211.83</ele>
        <time>2016-03-01T17:15:01Z</time>
      </trkpt>
      <trkpt lat="48.06032" lon="7.01733">
        <ele>1211.69</ele>
        <time>2016-03-01T17:15:02Z</time>
      </trkpt>
      <trkpt lat="48.06031" lon="7.01733">
        <ele>1213.57</ele>
        <time>2016-03-01T17:15:15Z</time>
      </trkpt>
      <trkpt lat="48.06031" lon="7.01733">
        <ele>1212.23</ele>
        <time>2016-03-01T17:15:40Z</time>
      </trkpt>
      <trkpt lat="48.06031" lon="7.01733">
        <ele>1212.75</ele>
        <time>2016-03-01T17:15:45Z</time>
      </trkpt>
      <trkpt lat="48.06031" lon="7.01733">
        <ele>1211.71</ele>
        <time>2016-03-01T17:16:25Z</time>
      </trkpt>
      <trkpt lat="48.06026" lon="7.01733">
        <ele>1212.79</ele>
        <time>2016-03-01T17:16:51Z</time>
      </trkpt>
      <trkpt lat="48.06021" lon="7.0173">
        <ele>1212.47</ele>
        <time>2016-03-01T17:17:02Z</time>
      </trkpt>
      <trkpt lat="48.06019" lon="7.01728">
        <ele>1213.91</ele>
        <time>2016-03-01T17:17:05Z</time>
      </trkpt>
      <trkpt lat="48.06009" lon="7.01715">
        <ele>1214.21</ele>
        <time>2016-03-01T17:17:24Z</time>
      </trkpt>
      <trkpt lat="48.06" lon="7.01701">
        <ele>1214.79</ele>
        <time>2016-03-01T17:17:43Z</time>
      </trkpt>
      <trkpt lat="48.05991" lon="7.01685">
        <ele>1216.73</ele>
        <time>2016-03-01T17:18:03Z</time>
      </trkpt>
      <trkpt lat="48.05988" lon="7.01682">
        <ele>1217.39</ele>
        <time>2016-03-01T17:18:09Z</time>
      </trkpt>
      <trkpt lat="48.05977" lon="7.0168">
        <ele>1220.15</ele>
        <time>2016-03-01T17:18:29Z</time>
      </trkpt>
      <trkpt lat="48.05966" lon="7.0168">
        <ele>1221.67</ele>
        <time>2016-03-01T17:18:50Z</time>
      </trkpt>
      <trkpt lat="48.05964" lon="7.01679">
        <ele>1221.64</ele>
        <time>2016-03-01T17:18:57Z</time>
      </trkpt>
      <trkpt lat="48.05957" lon="7.01674">
        <ele>1222.61</ele>
        <time>2016-03-01T17:19:20Z</time>
      </trkpt>
      <trkpt lat="48.05948" lon="7.01671">
        <ele>1224.1</ele>
        <time>2016-03-01T17:19:41Z</time>
      </trkpt>
      <trkpt lat="48.05937" lon="7.01666">
        <ele>1224.65</ele>
        <time>2016-03-01T17:20:01Z</time>
      </trkpt>
      <trkpt lat="48.05927" lon="7.01664">
        <ele>1225.69</ele>
        <time>2016-03-01T17:20:20Z</time>
      </trkpt>
      <trkpt lat="48.05927" lon="7.01665">
        <ele>1225.79</ele>
        <time>2016-03-01T17:20:21Z</time>
      </trkpt>
      <trkpt lat="48.05927" lon="7.01665">
        <ele>1226.44</ele>
        <time>2016-03-01T17:20:22Z</time>
      </trkpt>
      <trkpt lat="48.05926" lon="7.01665">
        <ele>1220.63</ele>
        <time>2016-03-01T17:20:24Z</time>
      </trkpt>
      <trkpt lat="48.05925" lon="7.01665">
        <ele>1235.05</ele>
        <time>2016-03-01T17:20:25Z</time>
      </trkpt>
      <trkpt lat="48.05925" lon="7.01665">
        <ele>1227.17</ele>
        <time>2016-03-01T17:20:26Z</time>
      </trkpt>
      <trkpt lat="48.0592" lon="7.01678">
        <ele>1228.14</ele>
        <time>2016-03-01T17:20:50Z</time>
      </trkpt>
      <trkpt lat="48.05918" lon="7.0168">
        <ele>1230.7</ele>
        <time>2016-03-01T17:20:56Z</time>
      </trkpt>
      <trkpt lat="48.05916" lon="7.01682">
        <ele>1230.65</ele>
        <time>2016-03-01T17:21:03Z</time>
      </trkpt>
      <trkpt lat="48.05909" lon="7.01692">
        <ele>1232.54</ele>
        <time>2016-03-01T17:21:26Z</time>
      </trkpt>
      <trkpt lat="48.05908" lon="7.01693">
        <ele>1232.21</ele>
        <time>2016-03-01T17:21:27Z</time>
      </trkpt>
      <trkpt lat="48.05901" lon="7.017">
        <ele>1233.61</ele>
        <time>2016-03-01T17:21:50Z</time>
      </trkpt>
      <trkpt lat="48.05899" lon="7.01705">
        <ele>1233.52</ele>
        <time>2016-03-01T17:22:12Z</time>
      </trkpt>
      <trkpt lat="48.05897" lon="7.01704">
        <ele>1233.52</ele>
        <time>2016-03-01T17:22:29Z</time>
      </trkpt>
      <trkpt lat="48.05897" lon="7.01705">
        <ele>1232.08</ele>
        <time>2016-03-01T17:22:33Z</time>
      </trkpt>
      <trkpt lat="48.05894" lon="7.01703">
        <ele>1232.93</ele>
        <time>2016-03-01T17:22:46Z</time>
      </trkpt>
      <trkpt lat="48.05888" lon="7.01697">
        <ele>1234</ele>
        <time>2016-03-01T17:23:07Z</time>
      </trkpt>
      <trkpt lat="48.05876" lon="7.01692">
        <ele>1234.73</ele>
        <time>2016-03-01T17:23:34Z</time>
      </trkpt>
      <trkpt lat="48.05866" lon="7.01684">
        <ele>1236.38</ele>
        <time>2016-03-01T17:23:57Z</time>
      </trkpt>
      <trkpt lat="48.05857" lon="7.01682">
        <ele>1237.47</ele>
        <time>2016-03-01T17:24:12Z</time>
      </trkpt>
      <trkpt lat="48.05856" lon="7.01682">
        <ele>1235.85</ele>
        <time>2016-03-01T17:24:15Z</time>
      </trkpt>
      <trkpt lat="48.05851" lon="7.01677">
        <ele>1237.68</ele>
        <time>2016-03-01T17:24:33Z</time>
      </trkpt>
      <trkpt lat="48.05839" lon="7.01675">
        <ele>1238.02</ele>
        <time>2016-03-01T17:24:56Z</time>
      </trkpt>
      <trkpt lat="48.05834" lon="7.01669">
        <ele>1237.65</ele>
        <time>2016-03-01T17:25:05Z</time>
      </trkpt>
      <trkpt lat="48.05826" lon="7.01658">
        <ele>1236.2</ele>
        <time>2016-03-01T17:25:32Z</time>
      </trkpt>
      <trkpt lat="48.05815" lon="7.01654">
        <ele>1236.8</ele>
        <time>2016-03-01T17:25:52Z</time>
      </trkpt>
      <trkpt lat="48.05803" lon="7.01649">
        <ele>1236.45</ele>
        <time>2016-03-01T17:26:14Z</time>
      </trkpt>
      <trkpt lat="48.05791" lon="7.01646">
        <ele>1238.01</ele>
        <time>2016-03-01T17:26:33Z</time>
      </trkpt>
      <trkpt lat="48.0578" lon="7.01647">
        <ele>1238</ele>
        <time>2016-03-01T17:26:51Z</time>
      </trkpt>
      <trkpt lat="48.05766" lon="7.01647">
        <ele>1238.55</ele>
        <time>2016-03-01T17:27:13Z</time>
      </trkpt>
      <trkpt lat="48.05746" lon="7.01641">
        <ele>1238.98</ele>
        <time>2016-03-01T17:27:35Z</time>
      </trkpt>
      <trkpt lat="48.05741" lon="7.0164">
        <ele>1239.11</ele>
        <time>2016-03-01T17:27:41Z</time>
      </trkpt>
      <trkpt lat="48.0573" lon="7.01634">
        <ele>1238.85</ele>
        <time>2016-03-01T17:28:00Z</time>
      </trkpt>
      <trkpt lat="48.05718" lon="7.01624">
        <ele>1238.58</ele>
        <time>2016-03-01T17:28:22Z</time>
      </trkpt>
      <trkpt lat="48.05706" lon="7.01618">
        <ele>1238.75</ele>
        <time>2016-03-01T17:28:42Z</time>
      </trkpt>
      <trkpt lat="48.05697" lon="7.01611">
        <ele>1238.99</ele>
        <time>2016-03-01T17:29:05Z</time>
      </trkpt>
      <trkpt lat="48.05694" lon="7.01613">
        <ele>1237.87</ele>
        <time>2016-03-01T17:29:35Z</time>
      </trkpt>
      <trkpt lat="48.0569" lon="7.01607">
        <ele>1238.17</ele>
        <time>2016-03-01T17:30:05Z</time>
      </trkpt>
      <trkpt lat="48.05688" lon="7.01605">
        <ele>1237.67</ele>
        <time>2016-03-01T17:30:35Z</time>
      </trkpt>
      <trkpt lat="48.05685" lon="7.01606">
        <ele>1237.97</ele>
        <time>2016-03-01T17:31:01Z</time>
      </trkpt>
      <trkpt lat="48.05677" lon="7.01609">
        <ele>1239.48</ele>
        <time>2016-03-01T17:31:21Z</time>
      </trkpt>
      <trkpt lat="48.05665" lon="7.01611">
        <ele>1240.12</ele>
        <time>2016-03-01T17:31:44Z</time>
      </trkpt>
      <trkpt lat="48.05653" lon="7.01612">
        <ele>1240.79</ele>
        <time>2016-03-01T17:32:04Z</time>
      </trkpt>
      <trkpt lat="48.05638" lon="7.01611">
        <ele>1240.5</ele>
        <time>2016-03-01T17:32:26Z</time>
      </trkpt>
      <trkpt lat="48.05625" lon="7.01602">
        <ele>1241.21</ele>
        <time>2016-03-01T17:32:49Z</time>
      </trkpt>
      <trkpt lat="48.05611" lon="7.01594">
        <ele>1240.46</ele>
        <time>2016-03-01T17:33:10Z</time>
      </trkpt>
      <trkpt lat="48.05602" lon="7.0158">
        <ele>1238.14</ele>
        <time>2016-03-01T17:33:28Z</time>
      </trkpt>
      <trkpt lat="48.05593" lon="7.01577">
        <ele>1238.97</ele>
        <time>2016-03-01T17:33:41Z</time>
      </trkpt>
      <trkpt lat="48.05589" lon="7.01576">
        <ele>1238.57</ele>
        <time>2016-03-01T17:33:46Z</time>
      </trkpt>
      <trkpt lat="48.05579" lon="7.01574">
        <ele>1239.29</ele>
        <time>2016-03-01T17:34:05Z</time>
      </trkpt>
      <trkpt lat="48.05565" lon="7.01567">
        <ele>1240.43</ele>
        <time>2016-03-01T17:34:24Z</time>
      </trkpt>
      <trkpt lat="48.05561" lon="7.01566">
        <ele>1239.58</ele>
        <time>2016-03-01T17:34:31Z</time>
      </trkpt>
      <trkpt lat="48.05549" lon="7.01554">
        <ele>1238.48</ele>
        <time>2016-03-01T17:34:51Z</time>
      </trkpt>
      <trkpt lat="48.05535" lon="7.01539">
        <ele>1238.14</ele>
        <time>2016-03-01T17:35:13Z</time>
      </trkpt>
      <trkpt lat="48.05526" lon="7.01526">
        <ele>1235.74</ele>
        <time>2016-03-01T17:35:31Z</time>
      </trkpt>
      <trkpt lat="48.05524" lon="7.01524">
        <ele>1232.26</ele>
        <time>2016-03-01T17:35:36Z</time>
      </trkpt>
      <trkpt lat="48.05524" lon="7.01523">
        <ele>1237.79</ele>
        <time>2016-03-01T17:35:37Z</time>
      </trkpt>
      <trkpt lat="48.05516" lon="7.01515">
        <ele>1235.78</ele>
        <time>2016-03-01T17:35:49Z</time>
      </trkpt>
      <trkpt lat="48.05502" lon="7.0151">
        <ele>1236.67</ele>
        <time>2016-03-01T17:36:09Z</time>
      </trkpt>
      <trkpt lat="48.0549" lon="7.01511">
        <ele>1234.6</ele>
        <time>2016-03-01T17:36:31Z</time>
      </trkpt>
      <trkpt lat="48.05477" lon="7.01512">
        <ele>1234.82</ele>
        <time>2016-03-01T17:36:51Z</time>
      </trkpt>
      <trkpt lat="48.05473" lon="7.01513">
        <ele>1234.94</ele>
        <time>2016-03-01T17:36:59Z</time>
      </trkpt>
      <trkpt lat="48.05462" lon="7.01513">
        <ele>1233.6</ele>
        <time>2016-03-01T17:37:23Z</time>
      </trkpt>
      <trkpt lat="48.05454" lon="7.01509">
        <ele>1232.93</ele>
        <time>2016-03-01T17:37:45Z</time>
      </trkpt>
      <trkpt lat="48.05455" lon="7.01503">
        <ele>1233.38</ele>
        <time>2016-03-01T17:38:13Z</time>
      </trkpt>
      <trkpt lat="48.05455" lon="7.01503">
        <ele>1233.83</ele>
        <time>2016-03-01T17:38:40Z</time>
      </trkpt>
      <trkpt lat="48.05454" lon="7.015">
        <ele>1233.84</ele>
        <time>2016-03-01T17:39:10Z</time>
      </trkpt>
      <trkpt lat="48.05455" lon="7.01501">
        <ele>1232.98</ele>
        <time>2016-03-01T17:39:34Z</time>
      </trkpt>
      <trkpt lat="48.0545" lon="7.015">
        <ele>1232.57</ele>
        <time>2016-03-01T17:40:03Z</time>
      </trkpt>
      <trkpt lat="48.05449" lon="7.01506">
        <ele>1233.12</ele>
        <time>2016-03-01T17:40:26Z</time>
      </trkpt>
      <trkpt lat="48.05444" lon="7.01507">
        <ele>1235.59</ele>
        <time>2016-03-01T17:40:34Z</time>
      </trkpt>
      <trkpt lat="48.05439" lon="7.01517">
        <ele>1235.16</ele>
        <time>2016-03-01T17:40:54Z</time>
      </trkpt>
      <trkpt lat="48.05431" lon="7.01528">
        <ele>1236.05</ele>
        <time>2016-03-01T17:41:16Z</time>
      </trkpt>
      <trkpt lat="48.05426" lon="7.01539">
        <ele>1239.3</ele>
        <time>2016-03-01T17:41:38Z</time>
      </trkpt>
      <trkpt lat="48.05421" lon="7.01556">
        <ele>1239.04</ele>
        <time>2016-03-01T17:41:59Z</time>
      </trkpt>
      <trkpt lat="48.0542" lon="7.01567">
        <ele>1242.26</ele>
        <time>2016-03-01T17:42:16Z</time>
      </trkpt>
      <trkpt lat="48.05422" lon="7.01575">
        <ele>1242.35</ele>
        <time>2016-03-01T17:42:42Z</time>
      </trkpt>
      <trkpt lat="48.05423" lon="7.01583">
        <ele>1242.23</ele>
        <time>2016-03-01T17:43:10Z</time>
      </trkpt>
      <trkpt lat="48.05425" lon="7.01593">
        <ele>1244.77</ele>
        <time>2016-03-01T17:43:28Z</time>
      </trkpt>
      <trkpt lat="48.05426" lon="7.01608">
        <ele>1246.16</ele>
        <time>2016-03-01T17:43:49Z</time>
      </trkpt>
      <trkpt lat="48.05431" lon="7.01621">
        <ele>1247.81</ele>
        <time>2016-03-01T17:44:10Z</time>
      </trkpt>
      <trkpt lat="48.05436" lon="7.0164">
        <ele>1250.85</ele>
        <time>2016-03-01T17:44:31Z</time>
      </trkpt>
      <trkpt lat="48.05436" lon="7.01658">
        <ele>1251.75</ele>
        <time>2016-03-01T17:44:50Z</time>
      </trkpt>
      <trkpt lat="48.05437" lon="7.01662">
        <ele>1251.5</ele>
        <time>2016-03-01T17:45:17Z</time>
      </trkpt>
      <trkpt lat="48.05435" lon="7.01656">
        <ele>1250.86</ele>
        <time>2016-03-01T17:45:52Z</time>
      </trkpt>
      <trkpt lat="48.05435" lon="7.01664">
        <ele>1252.09</ele>
        <time>2016-03-01T17:46:15Z</time>
      </trkpt>
      <trkpt lat="48.0543" lon="7.01684">
        <ele>1254.06</ele>
        <time>2016-03-01T17:46:38Z</time>
      </trkpt>
      <trkpt lat="48.05422" lon="7.01698">
        <ele>1254.98</ele>
        <time>2016-03-01T17:46:55Z</time>
      </trkpt>
      <trkpt lat="48.05411" lon="7.01708">
        <ele>1253.89</ele>
        <time>2016-03-01T17:47:16Z</time>
      </trkpt>
      <trkpt lat="48.05399" lon="7.01713">
        <ele>1253.45</ele>
        <time>2016-03-01T17:47:35Z</time>
      </trkpt>
      <trkpt lat="48.05396" lon="7.01716">
        <ele>1254.34</ele>
        <time>2016-03-01T17:47:42Z</time>
      </trkpt>
      <trkpt lat="48.05383" lon="7.01719">
        <ele>1252.56</ele>
        <time>2016-03-01T17:48:04Z</time>
      </trkpt>
      <trkpt lat="48.05371" lon="7.01731">
        <ele>1253.69</ele>
        <time>2016-03-01T17:48:24Z</time>
      </trkpt>
      <trkpt lat="48.05356" lon="7.01739">
        <ele>1250.78</ele>
        <time>2016-03-01T17:48:46Z</time>
      </trkpt>
      <trkpt lat="48.05345" lon="7.01747">
        <ele>1249.73</ele>
        <time>2016-03-01T17:49:05Z</time>
      </trkpt>
      <trkpt lat="48.05335" lon="7.01759">
        <ele>1247.8</ele>
        <time>2016-03-01T17:49:24Z</time>
      </trkpt>
      <trkpt lat="48.0532" lon="7.01757">
        <ele>1246.87</ele>
        <time>2016-03-01T17:49:41Z</time>
      </trkpt>
      <trkpt lat="48.05309" lon="7.01758">
        <ele>1244.9</ele>
        <time>2016-03-01T17:50:00Z</time>
      </trkpt>
      <trkpt lat="48.05296" lon="7.01759">
        <ele>1243.77</ele>
        <time>2016-03-01T17:50:20Z</time>
      </trkpt>
      <trkpt lat="48.05289" lon="7.01757">
        <ele>1240.74</ele>
        <time>2016-03-01T17:50:30Z</time>
      </trkpt>
      <trkpt lat="48.05276" lon="7.01747">
        <ele>1239.08</ele>
        <time>2016-03-01T17:50:49Z</time>
      </trkpt>
      <trkpt lat="48.05267" lon="7.0173">
        <ele>1236.51</ele>
        <time>2016-03-01T17:51:08Z</time>
      </trkpt>
      <trkpt lat="48.05255" lon="7.01712">
        <ele>1234.19</ele>
        <time>2016-03-01T17:51:28Z</time>
      </trkpt>
      <trkpt lat="48.05253" lon="7.0171">
        <ele>1232.96</ele>
        <time>2016-03-01T17:51:32Z</time>
      </trkpt>
      <trkpt lat="48.05251" lon="7.01706">
        <ele>1233.6</ele>
        <time>2016-03-01T17:51:36Z</time>
      </trkpt>
      <trkpt lat="48.05238" lon="7.01689">
        <ele>1231.78</ele>
        <time>2016-03-01T17:51:58Z</time>
      </trkpt>
      <trkpt lat="48.05229" lon="7.01669">
        <ele>1230.95</ele>
        <time>2016-03-01T17:52:15Z</time>
      </trkpt>
      <trkpt lat="48.05223" lon="7.01649">
        <ele>1229.51</ele>
        <time>2016-03-01T17:52:30Z</time>
      </trkpt>
      <trkpt lat="48.05224" lon="7.01633">
        <ele>1228.42</ele>
        <time>2016-03-01T17:52:48Z</time>
      </trkpt>
      <trkpt lat="48.05224" lon="7.01619">
        <ele>1226.95</ele>
        <time>2016-03-01T17:53:03Z</time>
      </trkpt>
      <trkpt lat="48.05225" lon="7.01615">
        <ele>1227.13</ele>
        <time>2016-03-01T17:53:07Z</time>
      </trkpt>
      <trkpt lat="48.05226" lon="7.01595">
        <ele>1226.61</ele>
        <time>2016-03-01T17:53:24Z</time>
      </trkpt>
      <trkpt lat="48.05226" lon="7.01587">
        <ele>1226.34</ele>
        <time>2016-03-01T17:53:31Z</time>
      </trkpt>
      <trkpt lat="48.05224" lon="7.01564">
        <ele>1224.37</ele>
        <time>2016-03-01T17:53:50Z</time>
      </trkpt>
      <trkpt lat="48.05218" lon="7.01549">
        <ele>1222.4</ele>
        <time>2016-03-01T17:54:12Z</time>
      </trkpt>
      <trkpt lat="48.05214" lon="7.01534">
        <ele>1222.29</ele>
        <time>2016-03-01T17:54:23Z</time>
      </trkpt>
      <trkpt lat="48.05216" lon="7.01519">
        <ele>1220.73</ele>
        <time>2016-03-01T17:54:38Z</time>
      </trkpt>
      <trkpt lat="48.05215" lon="7.01518">
        <ele>1221.09</ele>
        <time>2016-03-01T17:54:39Z</time>
      </trkpt>
      <trkpt lat="48.05215" lon="7.01506">
        <ele>1220.2</ele>
        <time>2016-03-01T17:54:48Z</time>
      </trkpt>
      <trkpt lat="48.05208" lon="7.01488">
        <ele>1219.65</ele>
        <time>2016-03-01T17:55:08Z</time>
      </trkpt>
      <trkpt lat="48.05207" lon="7.01477">
        <ele>1220.26</ele>
        <time>2016-03-01T17:55:38Z</time>
      </trkpt>
      <trkpt lat="48.05202" lon="7.01478">
        <ele>1214.18</ele>
        <time>2016-03-01T17:56:04Z</time>
      </trkpt>
      <trkpt lat="48.05202" lon="7.01478">
        <ele>1214.18</ele>
        <time>2016-03-01T17:56:05Z</time>
      </trkpt>
      <trkpt lat="48.05202" lon="7.01478">
        <ele>1218.46</ele>
        <time>2016-03-01T17:56:06Z</time>
      </trkpt>
      <trkpt lat="48.05202" lon="7.01478">
        <ele>1218.46</ele>
        <time>2016-03-01T17:56:07Z</time>
      </trkpt>
      <trkpt lat="48.05203" lon="7.01482">
        <ele>1220.69</ele>
        <time>2016-03-01T17:56:20Z</time>
      </trkpt>
      <trkpt lat="48.05202" lon="7.01478">
        <ele>1220.58</ele>
        <time>2016-03-01T17:56:35Z</time>
      </trkpt>
      <trkpt lat="48.05202" lon="7.01474">
        <ele>1219.67</ele>
        <time>2016-03-01T17:56:55Z</time>
      </trkpt>
      <trkpt lat="48.05201" lon="7.01472">
        <ele>1219.76</ele>
        <time>2016-03-01T17:57:16Z</time>
      </trkpt>
      <trkpt lat="48.05198" lon="7.01477">
        <ele>1221.48</ele>
        <time>2016-03-01T17:57:32Z</time>
      </trkpt>
      <trkpt lat="48.05196" lon="7.01482">
        <ele>1219.48</ele>
        <time>2016-03-01T17:57:47Z</time>
      </trkpt>
      <trkpt lat="48.05196" lon="7.0148">
        <ele>1220.51</ele>
        <time>2016-03-01T17:58:10Z</time>
      </trkpt>
      <trkpt lat="48.05197" lon="7.01478">
        <ele>1219.59</ele>
        <time>2016-03-01T17:58:29Z</time>
      </trkpt>
      <trkpt lat="48.05197" lon="7.01478">
        <ele>1220.62</ele>
        <time>2016-03-01T17:58:45Z</time>
      </trkpt>
      <trkpt lat="48.05199" lon="7.01471">
        <ele>1219.7</ele>
        <time>2016-03-01T17:59:00Z</time>
      </trkpt>
      <trkpt lat="48.05201" lon="7.01476">
        <ele>1221.25</ele>
        <time>2016-03-01T17:59:16Z</time>
      </trkpt>
      <trkpt lat="48.05201" lon="7.01476">
        <ele>1216.55</ele>
        <time>2016-03-01T17:59:19Z</time>
      </trkpt>
      <trkpt lat="48.05201" lon="7.01477">
        <ele>1221.05</ele>
        <time>2016-03-01T17:59:20Z</time>
      </trkpt>
      <trkpt lat="48.05201" lon="7.01479">
        <ele>1220.92</ele>
        <time>2016-03-01T17:59:47Z</time>
      </trkpt>
      <trkpt lat="48.05202" lon="7.01477">
        <ele>1213.33</ele>
        <time>2016-03-01T18:00:02Z</time>
      </trkpt>
      <trkpt lat="48.05202" lon="7.01476">
        <ele>1225.63</ele>
        <time>2016-03-01T18:00:03Z</time>
      </trkpt>
      <trkpt lat="48.05202" lon="7.01475">
        <ele>1220.65</ele>
        <time>2016-03-01T18:00:04Z</time>
      </trkpt>
      <trkpt lat="48.05202" lon="7.01466">
        <ele>1219.05</ele>
        <time>2016-03-01T18:00:16Z</time>
      </trkpt>
      <trkpt lat="48.05203" lon="7.01463">
        <ele>1219.6</ele>
        <time>2016-03-01T18:00:18Z</time>
      </trkpt>
      <trkpt lat="48.05209" lon="7.01455">
        <ele>1218.14</ele>
        <time>2016-03-01T18:00:25Z</time>
      </trkpt>
      <trkpt lat="48.05227" lon="7.01452">
        <ele>1218.59</ele>
        <time>2016-03-01T18:00:41Z</time>
      </trkpt>
      <trkpt lat="48.05231" lon="7.01449">
        <ele>1217.61</ele>
        <time>2016-03-01T18:00:46Z</time>
      </trkpt>
      <trkpt lat="48.05233" lon="7.01445">
        <ele>1217.48</ele>
        <time>2016-03-01T18:00:50Z</time>
      </trkpt>
      <trkpt lat="48.05238" lon="7.01426">
        <ele>1216.79</ele>
        <time>2016-03-01T18:01:05Z</time>
      </trkpt>
      <trkpt lat="48.05249" lon="7.01411">
        <ele>1213.74</ele>
        <time>2016-03-01T18:01:20Z</time>
      </trkpt>
      <trkpt lat="48.05257" lon="7.01391">
        <ele>1213.26</ele>
        <time>2016-03-01T18:01:38Z</time>
      </trkpt>
      <trkpt lat="48.05265" lon="7.01379">
        <ele>1211.03</ele>
        <time>2016-03-01T18:01:49Z</time>
      </trkpt>
      <trkpt lat="48.05272" lon="7.01363">
        <ele>1209.95</ele>
        <time>2016-03-01T18:02:05Z</time>
      </trkpt>
      <trkpt lat="48.05278" lon="7.01345">
        <ele>1207.9</ele>
        <time>2016-03-01T18:02:21Z</time>
      </trkpt>
      <trkpt lat="48.05289" lon="7.01331">
        <ele>1206.33</ele>
        <time>2016-03-01T18:02:38Z</time>
      </trkpt>
      <trkpt lat="48.053" lon="7.01314">
        <ele>1204.48</ele>
        <time>2016-03-01T18:02:55Z</time>
      </trkpt>
      <trkpt lat="48.05304" lon="7.01303">
        <ele>1203.79</ele>
        <time>2016-03-01T18:03:03Z</time>
      </trkpt>
      <trkpt lat="48.05315" lon="7.01296">
        <ele>1202.99</ele>
        <time>2016-03-01T18:03:16Z</time>
      </trkpt>
      <trkpt lat="48.05325" lon="7.01275">
        <ele>1201.34</ele>
        <time>2016-03-01T18:03:32Z</time>
      </trkpt>
      <trkpt lat="48.05337" lon="7.01255">
        <ele>1199.12</ele>
        <time>2016-03-01T18:03:50Z</time>
      </trkpt>
      <trkpt lat="48.05348" lon="7.01243">
        <ele>1196.79</ele>
        <time>2016-03-01T18:04:07Z</time>
      </trkpt>
      <trkpt lat="48.0536" lon="7.01228">
        <ele>1194.58</ele>
        <time>2016-03-01T18:04:26Z</time>
      </trkpt>
      <trkpt lat="48.0537" lon="7.01225">
        <ele>1194.99</ele>
        <time>2016-03-01T18:04:40Z</time>
      </trkpt>
      <trkpt lat="48.0538" lon="7.01216">
        <ele>1194.49</ele>
        <time>2016-03-01T18:04:57Z</time>
      </trkpt>
      <trkpt lat="48.05384" lon="7.01209">
        <ele>1194.73</ele>
        <time>2016-03-01T18:05:12Z</time>
      </trkpt>
      <trkpt lat="48.05381" lon="7.012">
        <ele>1193.35</ele>
        <time>2016-03-01T18:05:36Z</time>
      </trkpt>
      <trkpt lat="48.0538" lon="7.01187">
        <ele>1191.38</ele>
        <time>2016-03-01T18:05:54Z</time>
      </trkpt>
      <trkpt lat="48.05384" lon="7.01173">
        <ele>1189.05</ele>
        <time>2016-03-01T18:06:08Z</time>
      </trkpt>
      <trkpt lat="48.05388" lon="7.01169">
        <ele>1189.07</ele>
        <time>2016-03-01T18:06:26Z</time>
      </trkpt>
      <trkpt lat="48.05387" lon="7.0117">
        <ele>1189.7</ele>
        <time>2016-03-01T18:06:48Z</time>
      </trkpt>
      <trkpt lat="48.05387" lon="7.01169">
        <ele>1189.36</ele>
        <time>2016-03-01T18:07:04Z</time>
      </trkpt>
      <trkpt lat="48.05385" lon="7.01172">
        <ele>1190.47</ele>
        <time>2016-03-01T18:07:42Z</time>
      </trkpt>
      <trkpt lat="48.05388" lon="7.01174">
        <ele>1190.03</ele>
        <time>2016-03-01T18:08:11Z</time>
      </trkpt>
      <trkpt lat="48.05386" lon="7.01175">
        <ele>1189.6</ele>
        <time>2016-03-01T18:08:41Z</time>
      </trkpt>
      <trkpt lat="48.05385" lon="7.01177">
        <ele>1191.93</ele>
        <time>2016-03-01T18:09:01Z</time>
      </trkpt>
      <trkpt lat="48.05383" lon="7.01191">
        <ele>1193.48</ele>
        <time>2016-03-01T18:09:16Z</time>
      </trkpt>
      <trkpt lat="48.05384" lon="7.01205">
        <ele>1195.59</ele>
        <time>2016-03-01T18:09:33Z</time>
      </trkpt>
      <trkpt lat="48.05384" lon="7.0121">
        <ele>1192.22</ele>
        <time>2016-03-01T18:09:51Z</time>
      </trkpt>
      <trkpt lat="48.05384" lon="7.0121">
        <ele>1196.49</ele>
        <time>2016-03-01T18:09:52Z</time>
      </trkpt>
      <trkpt lat="48.05384" lon="7.0121">
        <ele>1192.86</ele>
        <time>2016-03-01T18:09:56Z</time>
      </trkpt>
      <trkpt lat="48.05383" lon="7.0121">
        <ele>1196.74</ele>
        <time>2016-03-01T18:09:57Z</time>
      </trkpt>
      <trkpt lat="48.05384" lon="7.0121">
        <ele>1192.72</ele>
        <time>2016-03-01T18:09:58Z</time>
      </trkpt>
      <trkpt lat="48.05383" lon="7.0121">
        <ele>1196.27</ele>
        <time>2016-03-01T18:10:01Z</time>
      </trkpt>
      <trkpt lat="48.05384" lon="7.01212">
        <ele>1196.09</ele>
        <time>2016-03-01T18:10:12Z</time>
      </trkpt>
      <trkpt lat="48.05383" lon="7.01213">
        <ele>1200.51</ele>
        <time>2016-03-01T18:10:14Z</time>
      </trkpt>
      <trkpt lat="48.05383" lon="7.01213">
        <ele>1197.13</ele>
        <time>2016-03-01T18:10:15Z</time>
      </trkpt>
      <trkpt lat="48.05381" lon="7.01215">
        <ele>1196.87</ele>
        <time>2016-03-01T18:10:38Z</time>
      </trkpt>
      <trkpt lat="48.05382" lon="7.01214">
        <ele>1196.77</ele>
        <time>2016-03-01T18:11:12Z</time>
      </trkpt>
      <trkpt lat="48.0539" lon="7.01219">
        <ele>1197.2</ele>
        <time>2016-03-01T18:11:36Z</time>
      </trkpt>
      <trkpt lat="48.05404" lon="7.01216">
        <ele>1195.03</ele>
        <time>2016-03-01T18:11:56Z</time>
      </trkpt>
      <trkpt lat="48.05415" lon="7.01214">
        <ele>1194.35</ele>
        <time>2016-03-01T18:12:15Z</time>
      </trkpt>
      <trkpt lat="48.05425" lon="7.0121">
        <ele>1194.92</ele>
        <time>2016-03-01T18:12:29Z</time>
      </trkpt>
      <trkpt lat="48.05437" lon="7.01203">
        <ele>1193.43</ele>
        <time>2016-03-01T18:12:47Z</time>
      </trkpt>
      <trkpt lat="48.05441" lon="7.01193">
        <ele>1191.4</ele>
        <time>2016-03-01T18:12:56Z</time>
      </trkpt>
      <trkpt lat="48.05441" lon="7.01189">
        <ele>1190.99</ele>
        <time>2016-03-01T18:12:59Z</time>
      </trkpt>
      <trkpt lat="48.05443" lon="7.01162">
        <ele>1188.92</ele>
        <time>2016-03-01T18:13:16Z</time>
      </trkpt>
      <trkpt lat="48.05444" lon="7.01159">
        <ele>1187.96</ele>
        <time>2016-03-01T18:13:18Z</time>
      </trkpt>
      <trkpt lat="48.05446" lon="7.01138">
        <ele>1187.41</ele>
        <time>2016-03-01T18:13:32Z</time>
      </trkpt>
      <trkpt lat="48.05447" lon="7.01113">
        <ele>1185.63</ele>
        <time>2016-03-01T18:13:48Z</time>
      </trkpt>
      <trkpt lat="48.05445" lon="7.01085">
        <ele>1183.41</ele>
        <time>2016-03-01T18:14:06Z</time>
      </trkpt>
      <trkpt lat="48.05444" lon="7.0108">
        <ele>1183.64</ele>
        <time>2016-03-01T18:14:10Z</time>
      </trkpt>
      <trkpt lat="48.05444" lon="7.01073">
        <ele>1182.77</ele>
        <time>2016-03-01T18:14:15Z</time>
      </trkpt>
      <trkpt lat="48.05443" lon="7.01046">
        <ele>1179.91</ele>
        <time>2016-03-01T18:14:34Z</time>
      </trkpt>
      <trkpt lat="48.05441" lon="7.01019">
        <ele>1178.54</ele>
        <time>2016-03-01T18:14:52Z</time>
      </trkpt>
      <trkpt lat="48.05441" lon="7.01003">
        <ele>1176.62</ele>
        <time>2016-03-01T18:15:04Z</time>
      </trkpt>
      <trkpt lat="48.05441" lon="7.00998">
        <ele>1176.19</ele>
        <time>2016-03-01T18:15:07Z</time>
      </trkpt>
      <trkpt lat="48.0544" lon="7.00968">
        <ele>1174.51</ele>
        <time>2016-03-01T18:15:27Z</time>
      </trkpt>
      <trkpt lat="48.0544" lon="7.00965">
        <ele>1173.54</ele>
        <time>2016-03-01T18:15:29Z</time>
      </trkpt>
      <trkpt lat="48.05441" lon="7.00943">
        <ele>1172.61</ele>
        <time>2016-03-01T18:15:45Z</time>
      </trkpt>
      <trkpt lat="48.05441" lon="7.00932">
        <ele>1171.46</ele>
        <time>2016-03-01T18:15:52Z</time>
      </trkpt>
      <trkpt lat="48.05437" lon="7.00927">
        <ele>1170.03</ele>
        <time>2016-03-01T18:15:58Z</time>
      </trkpt>
      <trkpt lat="48.05431" lon="7.00919">
        <ele>1168.85</ele>
        <time>2016-03-01T18:16:09Z</time>
      </trkpt>
      <trkpt lat="48.05431" lon="7.00898">
        <ele>1166.49</ele>
        <time>2016-03-01T18:16:25Z</time>
      </trkpt>
      <trkpt lat="48.05431" lon="7.00897">
        <ele>1166.33</ele>
        <time>2016-03-01T18:16:26Z</time>
      </trkpt>
      <trkpt lat="48.0543" lon="7.00885">
        <ele>1164.48</ele>
        <time>2016-03-01T18:16:39Z</time>
      </trkpt>
      <trkpt lat="48.05429" lon="7.00875">
        <ele>1162.78</ele>
        <time>2016-03-01T18:16:49Z</time>
      </trkpt>
      <trkpt lat="48.0543" lon="7.00866">
        <ele>1160.97</ele>
        <time>2016-03-01T18:16:55Z</time>
      </trkpt>
      <trkpt lat="48.05428" lon="7.00845">
        <ele>1157.72</ele>
        <time>2016-03-01T18:17:09Z</time>
      </trkpt>
      <trkpt lat="48.05426" lon="7.00826">
        <ele>1154.47</ele>
        <time>2016-03-01T18:17:21Z</time>
      </trkpt>
      <trkpt lat="48.05425" lon="7.00823">
        <ele>1153.37</ele>
        <time>2016-03-01T18:17:23Z</time>
      </trkpt>
      <trkpt lat="48.05421" lon="7.00813">
        <ele>1152.05</ele>
        <time>2016-03-01T18:17:30Z</time>
      </trkpt>
      <trkpt lat="48.05415" lon="7.00795">
        <ele>1148.49</ele>
        <time>2016-03-01T18:17:45Z</time>
      </trkpt>
      <trkpt lat="48.05413" lon="7.00782">
        <ele>1145.02</ele>
        <time>2016-03-01T18:17:56Z</time>
      </trkpt>
      <trkpt lat="48.05412" lon="7.00761">
        <ele>1141.6</ele>
        <time>2016-03-01T18:18:13Z</time>
      </trkpt>
      <trkpt lat="48.05413" lon="7.00754">
        <ele>1140.88</ele>
        <time>2016-03-01T18:18:18Z</time>
      </trkpt>
      <trkpt lat="48.05416" lon="7.00732">
        <ele>1137.84</ele>
        <time>2016-03-01T18:18:35Z</time>
      </trkpt>
      <trkpt lat="48.05417" lon="7.00713">
        <ele>1135</ele>
        <time>2016-03-01T18:18:50Z</time>
      </trkpt>
      <trkpt lat="48.0542" lon="7.00694">
        <ele>1131.87</ele>
        <time>2016-03-01T18:19:06Z</time>
      </trkpt>
      <trkpt lat="48.05424" lon="7.00674">
        <ele>1129.31</ele>
        <time>2016-03-01T18:19:23Z</time>
      </trkpt>
      <trkpt lat="48.05424" lon="7.00653">
        <ele>1126.24</ele>
        <time>2016-03-01T18:19:39Z</time>
      </trkpt>
      <trkpt lat="48.05429" lon="7.00634">
        <ele>1125.06</ele>
        <time>2016-03-01T18:19:56Z</time>
      </trkpt>
      <trkpt lat="48.05431" lon="7.00618">
        <ele>1122.22</ele>
        <time>2016-03-01T18:20:08Z</time>
      </trkpt>
      <trkpt lat="48.05432" lon="7.00609">
        <ele>1120.7</ele>
        <time>2016-03-01T18:20:15Z</time>
      </trkpt>
      <trkpt lat="48.05432" lon="7.00589">
        <ele>1117.33</ele>
        <time>2016-03-01T18:20:29Z</time>
      </trkpt>
      <trkpt lat="48.05432" lon="7.00575">
        <ele>1114.26</ele>
        <time>2016-03-01T18:20:43Z</time>
      </trkpt>
      <trkpt lat="48.05429" lon="7.0057">
        <ele>1113.15</ele>
        <time>2016-03-01T18:20:49Z</time>
      </trkpt>
      <trkpt lat="48.05428" lon="7.00568">
        <ele>1112.15</ele>
        <time>2016-03-01T18:20:51Z</time>
      </trkpt>
      <trkpt lat="48.0541" lon="7.00562">
        <ele>1111.96</ele>
        <time>2016-03-01T18:21:09Z</time>
      </trkpt>
      <trkpt lat="48.05399" lon="7.00558">
        <ele>1108.8</ele>
        <time>2016-03-01T18:21:21Z</time>
      </trkpt>
      <trkpt lat="48.05383" lon="7.00559">
        <ele>1107.26</ele>
        <time>2016-03-01T18:21:40Z</time>
      </trkpt>
      <trkpt lat="48.05385" lon="7.00547">
        <ele>1104.67</ele>
        <time>2016-03-01T18:21:50Z</time>
      </trkpt>
      <trkpt lat="48.05387" lon="7.00541">
        <ele>1103.7</ele>
        <time>2016-03-01T18:21:55Z</time>
      </trkpt>
      <trkpt lat="48.05389" lon="7.00529">
        <ele>1102.17</ele>
        <time>2016-03-01T18:22:08Z</time>
      </trkpt>
      <trkpt lat="48.05392" lon="7.00511">
        <ele>1102.26</ele>
        <time>2016-03-01T18:22:24Z</time>
      </trkpt>
      <trkpt lat="48.05398" lon="7.00506">
        <ele>1102.11</ele>
        <time>2016-03-01T18:22:31Z</time>
      </trkpt>
      <trkpt lat="48.05408" lon="7.00504">
        <ele>1101.79</ele>
        <time>2016-03-01T18:22:47Z</time>
      </trkpt>
      <trkpt lat="48.05409" lon="7.00509">
        <ele>1103.38</ele>
        <time>2016-03-01T18:22:54Z</time>
      </trkpt>
      <trkpt lat="48.05408" lon="7.00512">
        <ele>1103.61</ele>
        <time>2016-03-01T18:22:59Z</time>
      </trkpt>
      <trkpt lat="48.05409" lon="7.00517">
        <ele>1103.15</ele>
        <time>2016-03-01T18:23:11Z</time>
      </trkpt>
      <trkpt lat="48.05405" lon="7.00491">
        <ele>1102.28</ele>
        <time>2016-03-01T18:23:45Z</time>
      </trkpt>
      <trkpt lat="48.05405" lon="7.00491">
        <ele>1102.55</ele>
        <time>2016-03-01T18:23:47Z</time>
      </trkpt>
      <trkpt lat="48.05408" lon="7.00491">
        <ele>1103.64</ele>
        <time>2016-03-01T18:24:08Z</time>
      </trkpt>
      <trkpt lat="48.05407" lon="7.00492">
        <ele>1102.59</ele>
        <time>2016-03-01T18:24:13Z</time>
      </trkpt>
      <trkpt lat="48.05402" lon="7.00487">
        <ele>1107.09</ele>
        <time>2016-03-01T20:48:54Z</time>
      </trkpt>
      <trkpt lat="48.05424" lon="7.00499">
        <ele>1104.24</ele>
        <time>2016-03-01T20:49:50Z</time>
      </trkpt>
      <trkpt lat="48.05424" lon="7.00498">
        <ele>1105.8</ele>
        <time>2016-03-01T20:49:55Z</time>
      </trkpt>
      <trkpt lat="48.05427" lon="7.00501">
        <ele>1107.7</ele>
        <time>2016-03-01T20:50:00Z</time>
      </trkpt>
      <trkpt lat="48.05441" lon="7.00469">
        <ele>1106.4</ele>
        <time>2016-03-01T20:50:33Z</time>
      </trkpt>
      <trkpt lat="48.05436" lon="7.00463">
        <ele>1103.89</ele>
        <time>2016-03-01T20:50:52Z</time>
      </trkpt>
      <trkpt lat="48.05435" lon="7.00462">
        <ele>1105.16</ele>
        <time>2016-03-01T20:50:55Z</time>
      </trkpt>
      <trkpt lat="48.05406" lon="7.00483">
        <ele>1090.01</ele>
        <time>2016-03-01T20:51:52Z</time>
      </trkpt>
      <trkpt lat="48.05416" lon="7.00489">
        <ele>1090.25</ele>
        <time>2016-03-01T20:52:02Z</time>
      </trkpt>
      <trkpt lat="48.05424" lon="7.00496">
        <ele>1092.72</ele>
        <time>2016-03-01T20:52:14Z</time>
      </trkpt>
      <trkpt lat="48.05436" lon="7.00507">
        <ele>1090.98</ele>
        <time>2016-03-01T20:52:26Z</time>
      </trkpt>
      <trkpt lat="48.05449" lon="7.00518">
        <ele>1091.46</ele>
        <time>2016-03-01T20:52:41Z</time>
      </trkpt>
      <trkpt lat="48.05454" lon="7.00524">
        <ele>1091.1</ele>
        <time>2016-03-01T20:52:46Z</time>
      </trkpt>
      <trkpt lat="48.05461" lon="7.00532">
        <ele>1090.82</ele>
        <time>2016-03-01T20:52:55Z</time>
      </trkpt>
      <trkpt lat="48.05467" lon="7.0054">
        <ele>1091.29</ele>
        <time>2016-03-01T20:53:09Z</time>
      </trkpt>
      <trkpt lat="48.05475" lon="7.00549">
        <ele>1092.39</ele>
        <time>2016-03-01T20:53:27Z</time>
      </trkpt>
      <trkpt lat="48.05479" lon="7.00545">
        <ele>1091.48</ele>
        <time>2016-03-01T20:53:33Z</time>
      </trkpt>
      <trkpt lat="48.05483" lon="7.00527">
        <ele>1092.29</ele>
        <time>2016-03-01T20:53:48Z</time>
      </trkpt>
      <trkpt lat="48.05487" lon="7.00517">
        <ele>1090.55</ele>
        <time>2016-03-01T20:53:59Z</time>
      </trkpt>
      <trkpt lat="48.05499" lon="7.0052">
        <ele>1090.5</ele>
        <time>2016-03-01T20:54:16Z</time>
      </trkpt>
      <trkpt lat="48.05506" lon="7.00521">
        <ele>1090.22</ele>
        <time>2016-03-01T20:54:36Z</time>
      </trkpt>
      <trkpt lat="48.05513" lon="7.0052">
        <ele>1091.8</ele>
        <time>2016-03-01T20:54:56Z</time>
      </trkpt>
      <trkpt lat="48.05511" lon="7.00522">
        <ele>1092.02</ele>
        <time>2016-03-01T20:55:18Z</time>
      </trkpt>
      <trkpt lat="48.05512" lon="7.00527">
        <ele>1090.38</ele>
        <time>2016-03-01T20:55:39Z</time>
      </trkpt>
      <trkpt lat="48.05512" lon="7.00529">
        <ele>1091.16</ele>
        <time>2016-03-01T20:55:57Z</time>
      </trkpt>
      <trkpt lat="48.05516" lon="7.00533">
        <ele>1089.96</ele>
        <time>2016-03-01T20:56:16Z</time>
      </trkpt>
      <trkpt lat="48.05521" lon="7.00533">
        <ele>1087.67</ele>
        <time>2016-03-01T20:56:40Z</time>
      </trkpt>
      <trkpt lat="48.05526" lon="7.0053">
        <ele>1084.4</ele>
        <time>2016-03-01T20:56:56Z</time>
      </trkpt>
      <trkpt lat="48.05531" lon="7.00524">
        <ele>1081.07</ele>
        <time>2016-03-01T20:57:20Z</time>
      </trkpt>
      <trkpt lat="48.05538" lon="7.00526">
        <ele>1080.16</ele>
        <time>2016-03-01T20:57:39Z</time>
      </trkpt>
      <trkpt lat="48.0554" lon="7.0053">
        <ele>1079.74</ele>
        <time>2016-03-01T20:57:48Z</time>
      </trkpt>
      <trkpt lat="48.05555" lon="7.00541">
        <ele>1078.17</ele>
        <time>2016-03-01T20:58:13Z</time>
      </trkpt>
      <trkpt lat="48.05564" lon="7.0055">
        <ele>1076.62</ele>
        <time>2016-03-01T20:58:32Z</time>
      </trkpt>
      <trkpt lat="48.05581" lon="7.00562">
        <ele>1073.62</ele>
        <time>2016-03-01T20:58:58Z</time>
      </trkpt>
      <trkpt lat="48.05596" lon="7.00569">
        <ele>1072.23</ele>
        <time>2016-03-01T20:59:23Z</time>
      </trkpt>
      <trkpt lat="48.056" lon="7.00566">
        <ele>1072.48</ele>
        <time>2016-03-01T20:59:45Z</time>
      </trkpt>
      <trkpt lat="48.05605" lon="7.00562">
        <ele>1073.04</ele>
        <time>2016-03-01T21:00:04Z</time>
      </trkpt>
      <trkpt lat="48.05608" lon="7.00561">
        <ele>1073.05</ele>
        <time>2016-03-01T21:00:33Z</time>
      </trkpt>
      <trkpt lat="48.05608" lon="7.00562">
        <ele>1072.67</ele>
        <time>2016-03-01T21:00:35Z</time>
      </trkpt>
      <trkpt lat="48.05612" lon="7.0057">
        <ele>1073.25</ele>
        <time>2016-03-01T21:00:48Z</time>
      </trkpt>
      <trkpt lat="48.05623" lon="7.00579">
        <ele>1070.53</ele>
        <time>2016-03-01T21:01:12Z</time>
      </trkpt>
      <trkpt lat="48.05631" lon="7.00584">
        <ele>1069.5</ele>
        <time>2016-03-01T21:01:36Z</time>
      </trkpt>
      <trkpt lat="48.05637" lon="7.00591">
        <ele>1069.35</ele>
        <time>2016-03-01T21:01:58Z</time>
      </trkpt>
      <trkpt lat="48.05642" lon="7.00578">
        <ele>1066.09</ele>
        <time>2016-03-01T21:02:17Z</time>
      </trkpt>
      <trkpt lat="48.05658" lon="7.00581">
        <ele>1064.94</ele>
        <time>2016-03-01T21:02:37Z</time>
      </trkpt>
      <trkpt lat="48.05669" lon="7.0059">
        <ele>1062.5</ele>
        <time>2016-03-01T21:03:02Z</time>
      </trkpt>
      <trkpt lat="48.05681" lon="7.00598">
        <ele>1061.34</ele>
        <time>2016-03-01T21:03:25Z</time>
      </trkpt>
      <trkpt lat="48.0569" lon="7.00604">
        <ele>1061.33</ele>
        <time>2016-03-01T21:03:50Z</time>
      </trkpt>
      <trkpt lat="48.05698" lon="7.00613">
        <ele>1060.17</ele>
        <time>2016-03-01T21:04:13Z</time>
      </trkpt>
      <trkpt lat="48.05709" lon="7.00621">
        <ele>1058.56</ele>
        <time>2016-03-01T21:04:35Z</time>
      </trkpt>
      <trkpt lat="48.05715" lon="7.00622">
        <ele>1057.45</ele>
        <time>2016-03-01T21:04:56Z</time>
      </trkpt>
      <trkpt lat="48.05724" lon="7.00626">
        <ele>1055.47</ele>
        <time>2016-03-01T21:05:19Z</time>
      </trkpt>
      <trkpt lat="48.05734" lon="7.0063">
        <ele>1054.19</ele>
        <time>2016-03-01T21:05:41Z</time>
      </trkpt>
      <trkpt lat="48.0574" lon="7.00636">
        <ele>1053.66</ele>
        <time>2016-03-01T21:06:05Z</time>
      </trkpt>
      <trkpt lat="48.05744" lon="7.00638">
        <ele>1052.32</ele>
        <time>2016-03-01T21:06:28Z</time>
      </trkpt>
      <trkpt lat="48.05753" lon="7.00647">
        <ele>1050.54</ele>
        <time>2016-03-01T21:06:50Z</time>
      </trkpt>
      <trkpt lat="48.05766" lon="7.00659">
        <ele>1049.34</ele>
        <time>2016-03-01T21:07:15Z</time>
      </trkpt>
      <trkpt lat="48.05772" lon="7.00666">
        <ele>1048.8</ele>
        <time>2016-03-01T21:07:40Z</time>
      </trkpt>
      <trkpt lat="48.05782" lon="7.00668">
        <ele>1048.62</ele>
        <time>2016-03-01T21:08:03Z</time>
      </trkpt>
      <trkpt lat="48.05785" lon="7.00675">
        <ele>1047.14</ele>
        <time>2016-03-01T21:08:18Z</time>
      </trkpt>
      <trkpt lat="48.05784" lon="7.00671">
        <ele>1046.19</ele>
        <time>2016-03-01T21:08:43Z</time>
      </trkpt>
      <trkpt lat="48.05784" lon="7.0067">
        <ele>1046.43</ele>
        <time>2016-03-01T21:09:06Z</time>
      </trkpt>
      <trkpt lat="48.05785" lon="7.00669">
        <ele>1046.88</ele>
        <time>2016-03-01T21:09:11Z</time>
      </trkpt>
      <trkpt lat="48.0579" lon="7.00672">
        <ele>1046.32</ele>
        <time>2016-03-01T21:09:34Z</time>
      </trkpt>
      <trkpt lat="48.05791" lon="7.0067">
        <ele>1046.74</ele>
        <time>2016-03-01T21:09:59Z</time>
      </trkpt>
      <trkpt lat="48.05797" lon="7.00674">
        <ele>1045.66</ele>
        <time>2016-03-01T21:10:24Z</time>
      </trkpt>
      <trkpt lat="48.05801" lon="7.00679">
        <ele>1042.46</ele>
        <time>2016-03-01T21:10:38Z</time>
      </trkpt>
      <trkpt lat="48.05809" lon="7.00669">
        <ele>1042.62</ele>
        <time>2016-03-01T21:11:00Z</time>
      </trkpt>
      <trkpt lat="48.05814" lon="7.00662">
        <ele>1043.27</ele>
        <time>2016-03-01T21:11:27Z</time>
      </trkpt>
      <trkpt lat="48.05812" lon="7.00663">
        <ele>1042.26</ele>
        <time>2016-03-01T21:11:55Z</time>
      </trkpt>
      <trkpt lat="48.05812" lon="7.00669">
        <ele>1042.17</ele>
        <time>2016-03-01T21:12:20Z</time>
      </trkpt>
      <trkpt lat="48.05809" lon="7.00668">
        <ele>1043.49</ele>
        <time>2016-03-01T21:12:48Z</time>
      </trkpt>
      <trkpt lat="48.05808" lon="7.00668">
        <ele>1043.67</ele>
        <time>2016-03-01T21:13:15Z</time>
      </trkpt>
      <trkpt lat="48.05805" lon="7.00669">
        <ele>1045.1</ele>
        <time>2016-03-01T21:13:40Z</time>
      </trkpt>
      <trkpt lat="48.05807" lon="7.00667">
        <ele>1044.31</ele>
        <time>2016-03-01T21:14:08Z</time>
      </trkpt>
      <trkpt lat="48.05804" lon="7.00669">
        <ele>1044.62</ele>
        <time>2016-03-01T21:14:37Z</time>
      </trkpt>
      <trkpt lat="48.05808" lon="7.00669">
        <ele>1045.62</ele>
        <time>2016-03-01T21:15:02Z</time>
      </trkpt>
      <trkpt lat="48.05803" lon="7.00672">
        <ele>1045.33</ele>
        <time>2016-03-01T21:15:31Z</time>
      </trkpt>
      <trkpt lat="48.05804" lon="7.00671">
        <ele>1046.6</ele>
        <time>2016-03-01T21:15:43Z</time>
      </trkpt>
      <trkpt lat="48.05804" lon="7.0067">
        <ele>1046.44</ele>
        <time>2016-03-01T21:16:11Z</time>
      </trkpt>
      <trkpt lat="48.05805" lon="7.0067">
        <ele>1045.88</ele>
        <time>2016-03-01T21:16:40Z</time>
      </trkpt>
      <trkpt lat="48.05805" lon="7.0067">
        <ele>1046.22</ele>
        <time>2016-03-01T21:17:09Z</time>
      </trkpt>
      <trkpt lat="48.05807" lon="7.00672">
        <ele>1047.77</ele>
        <time>2016-03-01T21:17:37Z</time>
      </trkpt>
      <trkpt lat="48.05809" lon="7.00671">
        <ele>1047.02</ele>
        <time>2016-03-01T21:18:05Z</time>
      </trkpt>
      <trkpt lat="48.05811" lon="7.00674">
        <ele>1046.05</ele>
        <time>2016-03-01T21:18:29Z</time>
      </trkpt>
      <trkpt lat="48.05815" lon="7.00684">
        <ele>1045.09</ele>
        <time>2016-03-01T21:18:52Z</time>
      </trkpt>
      <trkpt lat="48.05819" lon="7.00699">
        <ele>1044</ele>
        <time>2016-03-01T21:19:14Z</time>
      </trkpt>
      <trkpt lat="48.05827" lon="7.0071">
        <ele>1042.13</ele>
        <time>2016-03-01T21:19:34Z</time>
      </trkpt>
      <trkpt lat="48.05831" lon="7.00725">
        <ele>1043.02</ele>
        <time>2016-03-01T21:19:57Z</time>
      </trkpt>
      <trkpt lat="48.05835" lon="7.00732">
        <ele>1044</ele>
        <time>2016-03-01T21:20:21Z</time>
      </trkpt>
      <trkpt lat="48.05837" lon="7.00754">
        <ele>1045.09</ele>
        <time>2016-03-01T21:20:46Z</time>
      </trkpt>
      <trkpt lat="48.05839" lon="7.00767">
        <ele>1045.59</ele>
        <time>2016-03-01T21:21:06Z</time>
      </trkpt>
      <trkpt lat="48.05845" lon="7.00785">
        <ele>1047.6</ele>
        <time>2016-03-01T21:21:29Z</time>
      </trkpt>
      <trkpt lat="48.05845" lon="7.00794">
        <ele>1043.95</ele>
        <time>2016-03-01T21:21:40Z</time>
      </trkpt>
      <trkpt lat="48.05845" lon="7.00795">
        <ele>1039.41</ele>
        <time>2016-03-01T21:21:41Z</time>
      </trkpt>
      <trkpt lat="48.05845" lon="7.00796">
        <ele>1046.37</ele>
        <time>2016-03-01T21:21:42Z</time>
      </trkpt>
      <trkpt lat="48.05843" lon="7.00794">
        <ele>1053.65</ele>
        <time>2016-03-01T21:21:44Z</time>
      </trkpt>
      <trkpt lat="48.05842" lon="7.00796">
        <ele>1048.53</ele>
        <time>2016-03-01T21:21:46Z</time>
      </trkpt>
      <trkpt lat="48.05851" lon="7.00819">
        <ele>1046.62</ele>
        <time>2016-03-01T21:22:03Z</time>
      </trkpt>
      <trkpt lat="48.05855" lon="7.00836">
        <ele>1047.48</ele>
        <time>2016-03-01T21:22:22Z</time>
      </trkpt>
      <trkpt lat="48.05858" lon="7.00844">
        <ele>1048.43</ele>
        <time>2016-03-01T21:22:48Z</time>
      </trkpt>
      <trkpt lat="48.05862" lon="7.00859">
        <ele>1050.51</ele>
        <time>2016-03-01T21:23:07Z</time>
      </trkpt>
      <trkpt lat="48.05871" lon="7.00877">
        <ele>1048.27</ele>
        <time>2016-03-01T21:23:29Z</time>
      </trkpt>
      <trkpt lat="48.05872" lon="7.00889">
        <ele>1049.43</ele>
        <time>2016-03-01T21:23:52Z</time>
      </trkpt>
      <trkpt lat="48.05874" lon="7.00896">
        <ele>1048.65</ele>
        <time>2016-03-01T21:24:15Z</time>
      </trkpt>
      <trkpt lat="48.05881" lon="7.009">
        <ele>1049.91</ele>
        <time>2016-03-01T21:24:35Z</time>
      </trkpt>
      <trkpt lat="48.05898" lon="7.00904">
        <ele>1051.29</ele>
        <time>2016-03-01T21:24:59Z</time>
      </trkpt>
      <trkpt lat="48.0591" lon="7.00911">
        <ele>1050.72</ele>
        <time>2016-03-01T21:25:17Z</time>
      </trkpt>
      <trkpt lat="48.05923" lon="7.00922">
        <ele>1054.24</ele>
        <time>2016-03-01T21:25:36Z</time>
      </trkpt>
      <trkpt lat="48.05937" lon="7.00937">
        <ele>1054.37</ele>
        <time>2016-03-01T21:26:02Z</time>
      </trkpt>
      <trkpt lat="48.05949" lon="7.00948">
        <ele>1055.13</ele>
        <time>2016-03-01T21:26:24Z</time>
      </trkpt>
      <trkpt lat="48.05964" lon="7.00965">
        <ele>1055</ele>
        <time>2016-03-01T21:26:51Z</time>
      </trkpt>
      <trkpt lat="48.05976" lon="7.00983">
        <ele>1057.75</ele>
        <time>2016-03-01T21:27:14Z</time>
      </trkpt>
      <trkpt lat="48.05984" lon="7.00994">
        <ele>1058.14</ele>
        <time>2016-03-01T21:27:30Z</time>
      </trkpt>
      <trkpt lat="48.0599" lon="7.01003">
        <ele>1057.93</ele>
        <time>2016-03-01T21:27:50Z</time>
      </trkpt>
      <trkpt lat="48.05992" lon="7.01009">
        <ele>1058.8</ele>
        <time>2016-03-01T21:28:18Z</time>
      </trkpt>
      <trkpt lat="48.05995" lon="7.01008">
        <ele>1057.64</ele>
        <time>2016-03-01T21:28:40Z</time>
      </trkpt>
      <trkpt lat="48.06002" lon="7.0101">
        <ele>1057.6</ele>
        <time>2016-03-01T21:28:58Z</time>
      </trkpt>
      <trkpt lat="48.06005" lon="7.01014">
        <ele>1058.64</ele>
        <time>2016-03-01T21:29:22Z</time>
      </trkpt>
      <trkpt lat="48.06013" lon="7.01021">
        <ele>1060.02</ele>
        <time>2016-03-01T21:29:42Z</time>
      </trkpt>
      <trkpt lat="48.06021" lon="7.01035">
        <ele>1059.42</ele>
        <time>2016-03-01T21:30:00Z</time>
      </trkpt>
      <trkpt lat="48.0602" lon="7.01047">
        <ele>1061.53</ele>
        <time>2016-03-01T21:30:27Z</time>
      </trkpt>
      <trkpt lat="48.06024" lon="7.0105">
        <ele>1058.43</ele>
        <time>2016-03-01T21:30:55Z</time>
      </trkpt>
      <trkpt lat="48.06032" lon="7.0106">
        <ele>1060.65</ele>
        <time>2016-03-01T21:31:20Z</time>
      </trkpt>
      <trkpt lat="48.06035" lon="7.01074">
        <ele>1060.54</ele>
        <time>2016-03-01T21:31:41Z</time>
      </trkpt>
      <trkpt lat="48.06037" lon="7.01077">
        <ele>1062.13</ele>
        <time>2016-03-01T21:32:07Z</time>
      </trkpt>
      <trkpt lat="48.06042" lon="7.0109">
        <ele>1061.62</ele>
        <time>2016-03-01T21:32:28Z</time>
      </trkpt>
      <trkpt lat="48.06053" lon="7.01098">
        <ele>1062.62</ele>
        <time>2016-03-01T21:32:55Z</time>
      </trkpt>
      <trkpt lat="48.06063" lon="7.01103">
        <ele>1064.61</ele>
        <time>2016-03-01T21:33:16Z</time>
      </trkpt>
      <trkpt lat="48.06075" lon="7.01115">
        <ele>1063.87</ele>
        <time>2016-03-01T21:33:39Z</time>
      </trkpt>
      <trkpt lat="48.06085" lon="7.01132">
        <ele>1066.05</ele>
        <time>2016-03-01T21:34:02Z</time>
      </trkpt>
      <trkpt lat="48.06093" lon="7.01144">
        <ele>1067.98</ele>
        <time>2016-03-01T21:34:18Z</time>
      </trkpt>
      <trkpt lat="48.06096" lon="7.01158">
        <ele>1068.2</ele>
        <time>2016-03-01T21:34:41Z</time>
      </trkpt>
      <trkpt lat="48.06101" lon="7.01169">
        <ele>1068</ele>
        <time>2016-03-01T21:35:00Z</time>
      </trkpt>
      <trkpt lat="48.06111" lon="7.01188">
        <ele>1069.3</ele>
        <time>2016-03-01T21:35:24Z</time>
      </trkpt>
      <trkpt lat="48.06113" lon="7.012">
        <ele>1070.43</ele>
        <time>2016-03-01T21:35:40Z</time>
      </trkpt>
      <trkpt lat="48.06121" lon="7.01212">
        <ele>1072.32</ele>
        <time>2016-03-01T21:36:01Z</time>
      </trkpt>
      <trkpt lat="48.06132" lon="7.01229">
        <ele>1070.66</ele>
        <time>2016-03-01T21:36:25Z</time>
      </trkpt>
      <trkpt lat="48.06143" lon="7.01236">
        <ele>1070.75</ele>
        <time>2016-03-01T21:36:47Z</time>
      </trkpt>
      <trkpt lat="48.06156" lon="7.01242">
        <ele>1072.16</ele>
        <time>2016-03-01T21:37:10Z</time>
      </trkpt>
      <trkpt lat="48.0617" lon="7.01249">
        <ele>1075.29</ele>
        <time>2016-03-01T21:37:35Z</time>
      </trkpt>
      <trkpt lat="48.06185" lon="7.01261">
        <ele>1072.61</ele>
        <time>2016-03-01T21:37:57Z</time>
      </trkpt>
      <trkpt lat="48.06198" lon="7.01275">
        <ele>1075.07</ele>
        <time>2016-03-01T21:38:21Z</time>
      </trkpt>
      <trkpt lat="48.06207" lon="7.01288">
        <ele>1078.15</ele>
        <time>2016-03-01T21:38:44Z</time>
      </trkpt>
      <trkpt lat="48.06217" lon="7.013">
        <ele>1077.95</ele>
        <time>2016-03-01T21:39:06Z</time>
      </trkpt>
      <trkpt lat="48.06228" lon="7.01313">
        <ele>1079.17</ele>
        <time>2016-03-01T21:39:26Z</time>
      </trkpt>
      <trkpt lat="48.06232" lon="7.01326">
        <ele>1079.91</ele>
        <time>2016-03-01T21:39:44Z</time>
      </trkpt>
      <trkpt lat="48.06241" lon="7.01338">
        <ele>1081.22</ele>
        <time>2016-03-01T21:40:10Z</time>
      </trkpt>
      <trkpt lat="48.06241" lon="7.0134">
        <ele>1082.09</ele>
        <time>2016-03-01T21:40:35Z</time>
      </trkpt>
      <trkpt lat="48.06241" lon="7.01337">
        <ele>1078.71</ele>
        <time>2016-03-01T21:40:49Z</time>
      </trkpt>
      <trkpt lat="48.06241" lon="7.01336">
        <ele>1079.18</ele>
        <time>2016-03-01T21:41:16Z</time>
      </trkpt>
      <trkpt lat="48.06243" lon="7.01333">
        <ele>1078.21</ele>
        <time>2016-03-01T21:41:40Z</time>
      </trkpt>
      <trkpt lat="48.06248" lon="7.0134">
        <ele>1077.82</ele>
        <time>2016-03-01T21:42:02Z</time>
      </trkpt>
      <trkpt lat="48.06255" lon="7.01359">
        <ele>1080.16</ele>
        <time>2016-03-01T21:42:24Z</time>
      </trkpt>
      <trkpt lat="48.06261" lon="7.01377">
        <ele>1081.45</ele>
        <time>2016-03-01T21:42:46Z</time>
      </trkpt>
      <trkpt lat="48.06268" lon="7.01396">
        <ele>1080.14</ele>
        <time>2016-03-01T21:43:10Z</time>
      </trkpt>
      <trkpt lat="48.06275" lon="7.01411">
        <ele>1081.68</ele>
        <time>2016-03-01T21:43:31Z</time>
      </trkpt>
      <trkpt lat="48.06278" lon="7.01424">
        <ele>1083.14</ele>
        <time>2016-03-01T21:43:51Z</time>
      </trkpt>
      <trkpt lat="48.0628" lon="7.01442">
        <ele>1085.36</ele>
        <time>2016-03-01T21:44:16Z</time>
      </trkpt>
      <trkpt lat="48.06285" lon="7.01461">
        <ele>1086.78</ele>
        <time>2016-03-01T21:44:38Z</time>
      </trkpt>
      <trkpt lat="48.06291" lon="7.01482">
        <ele>1088.35</ele>
        <time>2016-03-01T21:45:03Z</time>
      </trkpt>
      <trkpt lat="48.06294" lon="7.01498">
        <ele>1088.39</ele>
        <time>2016-03-01T21:45:28Z</time>
      </trkpt>
      <trkpt lat="48.06293" lon="7.01504">
        <ele>1091.39</ele>
        <time>2016-03-01T21:45:35Z</time>
      </trkpt>
      <trkpt lat="48.06297" lon="7.01522">
        <ele>1090.12</ele>
        <time>2016-03-01T21:45:56Z</time>
      </trkpt>
      <trkpt lat="48.06301" lon="7.01531">
        <ele>1091.47</ele>
        <time>2016-03-01T21:46:09Z</time>
      </trkpt>
      <trkpt lat="48.06306" lon="7.01546">
        <ele>1091.42</ele>
        <time>2016-03-01T21:46:29Z</time>
      </trkpt>
      <trkpt lat="48.06306" lon="7.01556">
        <ele>1093.73</ele>
        <time>2016-03-01T21:46:45Z</time>
      </trkpt>
      <trkpt lat="48.06306" lon="7.01563">
        <ele>1094.48</ele>
        <time>2016-03-01T21:46:56Z</time>
      </trkpt>
      <trkpt lat="48.06312" lon="7.01578">
        <ele>1094.97</ele>
        <time>2016-03-01T21:47:18Z</time>
      </trkpt>
      <trkpt lat="48.06322" lon="7.01592">
        <ele>1095.25</ele>
        <time>2016-03-01T21:47:40Z</time>
      </trkpt>
      <trkpt lat="48.06327" lon="7.01601">
        <ele>1097.88</ele>
        <time>2016-03-01T21:47:57Z</time>
      </trkpt>
      <trkpt lat="48.06333" lon="7.01616">
        <ele>1097.87</ele>
        <time>2016-03-01T21:48:22Z</time>
      </trkpt>
      <trkpt lat="48.06339" lon="7.01631">
        <ele>1100.73</ele>
        <time>2016-03-01T21:48:44Z</time>
      </trkpt>
      <trkpt lat="48.06346" lon="7.01644">
        <ele>1100.52</ele>
        <time>2016-03-01T21:49:04Z</time>
      </trkpt>
      <trkpt lat="48.06353" lon="7.01658">
        <ele>1102.61</ele>
        <time>2016-03-01T21:49:26Z</time>
      </trkpt>
      <trkpt lat="48.06354" lon="7.01666">
        <ele>1103.1</ele>
        <time>2016-03-01T21:49:38Z</time>
      </trkpt>
      <trkpt lat="48.06361" lon="7.01678">
        <ele>1104.6</ele>
        <time>2016-03-01T21:49:58Z</time>
      </trkpt>
      <trkpt lat="48.06362" lon="7.01682">
        <ele>1106.35</ele>
        <time>2016-03-01T21:50:04Z</time>
      </trkpt>
      <trkpt lat="48.06364" lon="7.01677">
        <ele>1103.24</ele>
        <time>2016-03-01T21:50:22Z</time>
      </trkpt>
      <trkpt lat="48.06364" lon="7.01676">
        <ele>1103.09</ele>
        <time>2016-03-01T21:50:23Z</time>
      </trkpt>
      <trkpt lat="48.06363" lon="7.01676">
        <ele>1104.65</ele>
        <time>2016-03-01T21:50:29Z</time>
      </trkpt>
      <trkpt lat="48.06362" lon="7.0168">
        <ele>1105.37</ele>
        <time>2016-03-01T21:50:58Z</time>
      </trkpt>
      <trkpt lat="48.06362" lon="7.0168">
        <ele>1103.31</ele>
        <time>2016-03-01T21:51:25Z</time>
      </trkpt>
      <trkpt lat="48.06362" lon="7.01681">
        <ele>1103.34</ele>
        <time>2016-03-01T21:51:50Z</time>
      </trkpt>
      <trkpt lat="48.06364" lon="7.01682">
        <ele>1104.91</ele>
        <time>2016-03-01T21:52:09Z</time>
      </trkpt>
      <trkpt lat="48.0636" lon="7.01697">
        <ele>1105.66</ele>
        <time>2016-03-01T21:52:25Z</time>
      </trkpt>
      <trkpt lat="48.06359" lon="7.01703">
        <ele>1106.73</ele>
        <time>2016-03-01T21:52:45Z</time>
      </trkpt>
      <trkpt lat="48.06362" lon="7.01709">
        <ele>1107.88</ele>
        <time>2016-03-01T21:53:03Z</time>
      </trkpt>
      <trkpt lat="48.06364" lon="7.01727">
        <ele>1109.13</ele>
        <time>2016-03-01T21:53:23Z</time>
      </trkpt>
      <trkpt lat="48.06362" lon="7.01739">
        <ele>1109.74</ele>
        <time>2016-03-01T21:53:40Z</time>
      </trkpt>
      <trkpt lat="48.06363" lon="7.01753">
        <ele>1111.2</ele>
        <time>2016-03-01T21:54:02Z</time>
      </trkpt>
      <trkpt lat="48.06366" lon="7.01766">
        <ele>1112.88</ele>
        <time>2016-03-01T21:54:20Z</time>
      </trkpt>
      <trkpt lat="48.06371" lon="7.01778">
        <ele>1114.37</ele>
        <time>2016-03-01T21:54:43Z</time>
      </trkpt>
      <trkpt lat="48.0637" lon="7.0179">
        <ele>1115.25</ele>
        <time>2016-03-01T21:55:05Z</time>
      </trkpt>
      <trkpt lat="48.06367" lon="7.01802">
        <ele>1115.58</ele>
        <time>2016-03-01T21:55:28Z</time>
      </trkpt>
      <trkpt lat="48.06367" lon="7.0181">
        <ele>1119.25</ele>
        <time>2016-03-01T21:55:43Z</time>
      </trkpt>
      <trkpt lat="48.06367" lon="7.01811">
        <ele>1119.23</ele>
        <time>2016-03-01T21:55:44Z</time>
      </trkpt>
      <trkpt lat="48.06361" lon="7.01828">
        <ele>1120.03</ele>
        <time>2016-03-01T21:56:07Z</time>
      </trkpt>
      <trkpt lat="48.06357" lon="7.01844">
        <ele>1120.36</ele>
        <time>2016-03-01T21:56:30Z</time>
      </trkpt>
      <trkpt lat="48.06353" lon="7.0186">
        <ele>1121.8</ele>
        <time>2016-03-01T21:56:52Z</time>
      </trkpt>
      <trkpt lat="48.06348" lon="7.01871">
        <ele>1122.99</ele>
        <time>2016-03-01T21:57:12Z</time>
      </trkpt>
      <trkpt lat="48.06348" lon="7.01873">
        <ele>1125.15</ele>
        <time>2016-03-01T21:57:16Z</time>
      </trkpt>
      <trkpt lat="48.0634" lon="7.01889">
        <ele>1124.81</ele>
        <time>2016-03-01T21:57:40Z</time>
      </trkpt>
      <trkpt lat="48.06334" lon="7.01896">
        <ele>1124.57</ele>
        <time>2016-03-01T21:58:02Z</time>
      </trkpt>
      <trkpt lat="48.06329" lon="7.01908">
        <ele>1126.31</ele>
        <time>2016-03-01T21:58:18Z</time>
      </trkpt>
      <trkpt lat="48.06324" lon="7.01921">
        <ele>1126.68</ele>
        <time>2016-03-01T21:58:38Z</time>
      </trkpt>
      <trkpt lat="48.06317" lon="7.01932">
        <ele>1128.7</ele>
        <time>2016-03-01T21:59:02Z</time>
      </trkpt>
      <trkpt lat="48.06312" lon="7.01938">
        <ele>1130.81</ele>
        <time>2016-03-01T21:59:19Z</time>
      </trkpt>
      <trkpt lat="48.06305" lon="7.0195">
        <ele>1131.53</ele>
        <time>2016-03-01T21:59:41Z</time>
      </trkpt>
      <trkpt lat="48.063" lon="7.01964">
        <ele>1132.15</ele>
        <time>2016-03-01T22:00:02Z</time>
      </trkpt>
      <trkpt lat="48.06299" lon="7.01966">
        <ele>1132.95</ele>
        <time>2016-03-01T22:00:04Z</time>
      </trkpt>
      <trkpt lat="48.06293" lon="7.01982">
        <ele>1134.96</ele>
        <time>2016-03-01T22:00:29Z</time>
      </trkpt>
      <trkpt lat="48.06286" lon="7.01992">
        <ele>1137.31</ele>
        <time>2016-03-01T22:00:52Z</time>
      </trkpt>
      <trkpt lat="48.06284" lon="7.01993">
        <ele>1135.59</ele>
        <time>2016-03-01T22:01:14Z</time>
      </trkpt>
      <trkpt lat="48.06283" lon="7.01994">
        <ele>1138.75</ele>
        <time>2016-03-01T22:01:35Z</time>
      </trkpt>
      <trkpt lat="48.06282" lon="7.01997">
        <ele>1136.48</ele>
        <time>2016-03-01T22:01:56Z</time>
      </trkpt>
      <trkpt lat="48.06282" lon="7.01998">
        <ele>1136.33</ele>
        <time>2016-03-01T22:01:57Z</time>
      </trkpt>
      <trkpt lat="48.06282" lon="7.01999">
        <ele>1138.13</ele>
        <time>2016-03-01T22:02:07Z</time>
      </trkpt>
      <trkpt lat="48.0628" lon="7.02002">
        <ele>1137.67</ele>
        <time>2016-03-01T22:02:32Z</time>
      </trkpt>
      <trkpt lat="48.06275" lon="7.02011">
        <ele>1139.53</ele>
        <time>2016-03-01T22:02:58Z</time>
      </trkpt>
      <trkpt lat="48.06269" lon="7.02018">
        <ele>1139.28</ele>
        <time>2016-03-01T22:03:19Z</time>
      </trkpt>
      <trkpt lat="48.06259" lon="7.02029">
        <ele>1138.75</ele>
        <time>2016-03-01T22:03:44Z</time>
      </trkpt>
      <trkpt lat="48.06252" lon="7.02037">
        <ele>1139.89</ele>
        <time>2016-03-01T22:03:59Z</time>
      </trkpt>
      <trkpt lat="48.06241" lon="7.02058">
        <ele>1139.19</ele>
        <time>2016-03-01T22:04:23Z</time>
      </trkpt>
      <trkpt lat="48.06243" lon="7.02075">
        <ele>1139.32</ele>
        <time>2016-03-01T22:04:45Z</time>
      </trkpt>
      <trkpt lat="48.06249" lon="7.02086">
        <ele>1138.53</ele>
        <time>2016-03-01T22:05:02Z</time>
      </trkpt>
      <trkpt lat="48.06255" lon="7.02091">
        <ele>1137.44</ele>
        <time>2016-03-01T22:05:09Z</time>
      </trkpt>
      <trkpt lat="48.06261" lon="7.02093">
        <ele>1138.01</ele>
        <time>2016-03-01T22:05:16Z</time>
      </trkpt>
      <trkpt lat="48.06267" lon="7.02092">
        <ele>1137.99</ele>
        <time>2016-03-01T22:05:21Z</time>
      </trkpt>
      <trkpt lat="48.06284" lon="7.02096">
        <ele>1139.99</ele>
        <time>2016-03-01T22:05:37Z</time>
      </trkpt>
      <trkpt lat="48.06301" lon="7.02107">
        <ele>1139.39</ele>
        <time>2016-03-01T22:05:55Z</time>
      </trkpt>
      <trkpt lat="48.06315" lon="7.02125">
        <ele>1140.04</ele>
        <time>2016-03-01T22:06:14Z</time>
      </trkpt>
      <trkpt lat="48.06317" lon="7.02128">
        <ele>1140.74</ele>
        <time>2016-03-01T22:06:25Z</time>
      </trkpt>
      <trkpt lat="48.06327" lon="7.02143">
        <ele>1141.89</ele>
        <time>2016-03-01T22:06:42Z</time>
      </trkpt>
      <trkpt lat="48.06327" lon="7.02143">
        <ele>1141.83</ele>
        <time>2016-03-01T22:06:43Z</time>
      </trkpt>
      <trkpt lat="48.06335" lon="7.02155">
        <ele>1141.69</ele>
        <time>2016-03-01T22:06:58Z</time>
      </trkpt>
      <trkpt lat="48.06337" lon="7.02159">
        <ele>1141.41</ele>
        <time>2016-03-01T22:07:03Z</time>
      </trkpt>
      <trkpt lat="48.06336" lon="7.02162">
        <ele>1141.49</ele>
        <time>2016-03-01T22:07:05Z</time>
      </trkpt>
      <trkpt lat="48.06336" lon="7.02187">
        <ele>1142.35</ele>
        <time>2016-03-01T22:07:21Z</time>
      </trkpt>
      <trkpt lat="48.06335" lon="7.02202">
        <ele>1141.41</ele>
        <time>2016-03-01T22:07:40Z</time>
      </trkpt>
      <trkpt lat="48.06335" lon="7.02202">
        <ele>1133.24</ele>
        <time>2016-03-01T22:07:57Z</time>
      </trkpt>
      <trkpt lat="48.06335" lon="7.02203">
        <ele>1148.74</ele>
        <time>2016-03-01T22:07:58Z</time>
      </trkpt>
      <trkpt lat="48.06335" lon="7.02203">
        <ele>1143.34</ele>
        <time>2016-03-01T22:07:59Z</time>
      </trkpt>
      <trkpt lat="48.06335" lon="7.02203">
        <ele>1142.28</ele>
        <time>2016-03-01T22:08:01Z</time>
      </trkpt>
      <trkpt lat="48.06333" lon="7.02203">
        <ele>1136.14</ele>
        <time>2016-03-01T22:08:14Z</time>
      </trkpt>
      <trkpt lat="48.06333" lon="7.02203">
        <ele>1141.02</ele>
        <time>2016-03-01T22:08:15Z</time>
      </trkpt>
      <trkpt lat="48.06333" lon="7.02203">
        <ele>1144.86</ele>
        <time>2016-03-01T22:08:16Z</time>
      </trkpt>
      <trkpt lat="48.06333" lon="7.02204">
        <ele>1142.81</ele>
        <time>2016-03-01T22:08:17Z</time>
      </trkpt>
      <trkpt lat="48.06333" lon="7.02203">
        <ele>1138.46</ele>
        <time>2016-03-01T22:08:19Z</time>
      </trkpt>
      <trkpt lat="48.06333" lon="7.02206">
        <ele>1148.47</ele>
        <time>2016-03-01T22:08:28Z</time>
      </trkpt>
      <trkpt lat="48.06334" lon="7.02206">
        <ele>1145.13</ele>
        <time>2016-03-01T22:08:29Z</time>
      </trkpt>
      <trkpt lat="48.06333" lon="7.02205">
        <ele>1141.99</ele>
        <time>2016-03-01T22:08:31Z</time>
      </trkpt>
      <trkpt lat="48.06334" lon="7.02205">
        <ele>1136.2</ele>
        <time>2016-03-01T22:08:38Z</time>
      </trkpt>
      <trkpt lat="48.06334" lon="7.02205">
        <ele>1140.93</ele>
        <time>2016-03-01T22:08:39Z</time>
      </trkpt>
      <trkpt lat="48.06334" lon="7.02203">
        <ele>1137.81</ele>
        <time>2016-03-01T22:08:48Z</time>
      </trkpt>
      <trkpt lat="48.06334" lon="7.02203">
        <ele>1138.71</ele>
        <time>2016-03-01T22:08:49Z</time>
      </trkpt>
      <trkpt lat="48.06334" lon="7.02202">
        <ele>1145.5</ele>
        <time>2016-03-01T22:08:51Z</time>
      </trkpt>
      <trkpt lat="48.06334" lon="7.02203">
        <ele>1133.4</ele>
        <time>2016-03-01T22:08:52Z</time>
      </trkpt>
      <trkpt lat="48.06334" lon="7.02202">
        <ele>1145.07</ele>
        <time>2016-03-01T22:08:53Z</time>
      </trkpt>
      <trkpt lat="48.06334" lon="7.02203">
        <ele>1141.16</ele>
        <time>2016-03-01T22:08:55Z</time>
      </trkpt>
      <trkpt lat="48.06334" lon="7.02203">
        <ele>1141.15</ele>
        <time>2016-03-01T22:08:56Z</time>
      </trkpt>
      <trkpt lat="48.06334" lon="7.02202">
        <ele>1144.24</ele>
        <time>2016-03-01T22:08:58Z</time>
      </trkpt>
      <trkpt lat="48.06334" lon="7.02201">
        <ele>1133.56</ele>
        <time>2016-03-01T22:09:03Z</time>
      </trkpt>
      <trkpt lat="48.06334" lon="7.02202">
        <ele>1138.12</ele>
        <time>2016-03-01T22:09:04Z</time>
      </trkpt>
      <trkpt lat="48.06334" lon="7.02202">
        <ele>1142.27</ele>
        <time>2016-03-01T22:09:06Z</time>
      </trkpt>
      <trkpt lat="48.06334" lon="7.02203">
        <ele>1139.98</ele>
        <time>2016-03-01T22:09:07Z</time>
      </trkpt>
      <trkpt lat="48.06332" lon="7.02205">
        <ele>1141.93</ele>
        <time>2016-03-01T22:12:44Z</time>
      </trkpt>
      <trkpt lat="48.06332" lon="7.02205">
        <ele>1137.48</ele>
        <time>2016-03-01T22:12:48Z</time>
      </trkpt>
      <trkpt lat="48.06332" lon="7.02205">
        <ele>1137.47</ele>
        <time>2016-03-01T22:12:49Z</time>
      </trkpt>
      <trkpt lat="48.06333" lon="7.02204">
        <ele>1141.74</ele>
        <time>2016-03-01T22:12:53Z</time>
      </trkpt>
      <trkpt lat="48.06333" lon="7.02204">
        <ele>1141.62</ele>
        <time>2016-03-01T22:12:54Z</time>
      </trkpt>
      <trkpt lat="48.06332" lon="7.02205">
        <ele>1141.54</ele>
        <time>2016-03-01T22:13:22Z</time>
      </trkpt>
      <trkpt lat="48.06336" lon="7.02207">
        <ele>1141.96</ele>
        <time>2016-03-01T22:13:59Z</time>
      </trkpt>
      <trkpt lat="48.06336" lon="7.02204">
        <ele>1141.05</ele>
        <time>2016-03-01T22:14:18Z</time>
      </trkpt>
      <trkpt lat="48.06334" lon="7.02203">
        <ele>1140.65</ele>
        <time>2016-03-01T22:14:38Z</time>
      </trkpt>
      <trkpt lat="48.06335" lon="7.02203">
        <ele>1141.41</ele>
        <time>2016-03-01T22:14:55Z</time>
      </trkpt>
      <trkpt lat="48.06334" lon="7.02207">
        <ele>1142.12</ele>
        <time>2016-03-01T22:15:14Z</time>
      </trkpt>
      <trkpt lat="48.06332" lon="7.02206">
        <ele>1142.12</ele>
        <time>2016-03-01T22:15:38Z</time>
      </trkpt>
      <trkpt lat="48.06332" lon="7.02206">
        <ele>1141.85</ele>
        <time>2016-03-01T22:15:39Z</time>
      </trkpt>
      <trkpt lat="48.06332" lon="7.02206">
        <ele>1138.8</ele>
        <time>2016-03-01T22:15:50Z</time>
      </trkpt>
      <trkpt lat="48.06332" lon="7.02205">
        <ele>1140.5</ele>
        <time>2016-03-01T22:15:53Z</time>
      </trkpt>
      <trkpt lat="48.06332" lon="7.02205">
        <ele>1137.12</ele>
        <time>2016-03-01T22:15:58Z</time>
      </trkpt>
      <trkpt lat="48.06332" lon="7.02205">
        <ele>1135.61</ele>
        <time>2016-03-01T22:16:00Z</time>
      </trkpt>
      <trkpt lat="48.06332" lon="7.02205">
        <ele>1132.52</ele>
        <time>2016-03-01T22:16:04Z</time>
      </trkpt>
      <trkpt lat="48.06332" lon="7.02205">
        <ele>1136.29</ele>
        <time>2016-03-01T22:16:06Z</time>
      </trkpt>
    </trkseg>
  </trk>
</gpx>